Wetterdaten: Donnerstag, 01.12.2022
Datum Zeit Temp. Aussen Temp. o. S. Temp +5cm Feuchte Auss Luftdruck Regen Sonnenschein Regendauer Solar Windben Empfang
01.12.2022 00:00 6,0 C 5,6 C 3,9 C 96 % 1026,2 hPa 0,0 l/m 0 min 0 min 0 W/m 3,2 km/h (1 Bft) 97,87 %
01.12.2022 00:02 6,0 C 5,6 C 3,9 C 96 % 1026,2 hPa 0,0 l/m 0 min 0 min 0 W/m 6,4 km/h (2 Bft) 92,86 %
01.12.2022 00:04 6,0 C 5,6 C 3,9 C 96 % 1026,2 hPa 0,0 l/m 0 min 0 min 0 W/m 6,4 km/h (2 Bft) 95,65 %
01.12.2022 00:07 6,0 C 5,6 C 3,9 C 96 % 1026,2 hPa 0,0 l/m 0 min 0 min 0 W/m 6,4 km/h (2 Bft) 94,59 %
01.12.2022 00:08 6,0 C 5,6 C 3,9 C 96 % 1026,2 hPa 0,0 l/m 0 min 0 min 0 W/m 0,0 km/h (0 Bft) 95,65 %
01.12.2022 00:10 6,0 C 5,6 C 3,9 C 96 % 1026,2 hPa 0,0 l/m 0 min 0 min 0 W/m 6,4 km/h (2 Bft) 100,00 %
01.12.2022 00:12 6,0 C 5,6 C 3,9 C 96 % 1026,3 hPa 0,0 l/m 0 min 0 min 0 W/m 6,4 km/h (2 Bft) 95,74 %
01.12.2022 00:14 6,0 C 5,6 C 3,9 C 96 % 1026,3 hPa 0,0 l/m 0 min 0 min 0 W/m 9,7 km/h (2 Bft) 95,74 %
01.12.2022 00:16 6,0 C 5,6 C 3,9 C 96 % 1026,3 hPa 0,0 l/m 0 min 0 min 0 W/m 3,2 km/h (1 Bft) 97,87 %
01.12.2022 00:18 6,0 C 5,6 C 3,9 C 96 % 1026,3 hPa 0,0 l/m 0 min 0 min 0 W/m 3,2 km/h (1 Bft) 95,65 %
01.12.2022 00:20 6,0 C 5,6 C 3,9 C 96 % 1026,3 hPa 0,0 l/m 0 min 0 min 0 W/m 3,2 km/h (1 Bft) 95,74 %
01.12.2022 00:22 6,0 C 5,6 C 3,9 C 96 % 1026,3 hPa 0,0 l/m 0 min 0 min 0 W/m 3,2 km/h (1 Bft) 95,74 %
01.12.2022 00:24 6,0 C 5,6 C 3,9 C 96 % 1026,3 hPa 0,0 l/m 0 min 0 min 0 W/m 3,2 km/h (1 Bft) 95,74 %
01.12.2022 00:26 6,0 C 5,6 C 3,9 C 96 % 1026,3 hPa 0,0 l/m 0 min 0 min 0 W/m 3,2 km/h (1 Bft) 95,74 %
01.12.2022 00:28 6,0 C 5,6 C 3,9 C 96 % 1026,3 hPa 0,0 l/m 0 min 0 min 0 W/m 3,2 km/h (1 Bft) 93,62 %
01.12.2022 00:30 6,0 C 5,6 C 3,9 C 96 % 1026,3 hPa 0,0 l/m 0 min 0 min 0 W/m 3,2 km/h (1 Bft) 97,83 %
01.12.2022 00:32 6,0 C 5,6 C 3,9 C 96 % 1026,4 hPa 0,0 l/m 0 min 0 min 0 W/m 9,7 km/h (2 Bft) 95,74 %
01.12.2022 00:34 5,9 C 5,6 C 3,9 C 96 % 1026,4 hPa 0,0 l/m 0 min 0 min 0 W/m 6,4 km/h (2 Bft) 93,62 %
01.12.2022 00:36 5,9 C 5,6 C 3,9 C 96 % 1026,3 hPa 0,0 l/m 0 min 0 min 0 W/m 3,2 km/h (1 Bft) 95,74 %
01.12.2022 00:38 5,9 C 5,6 C 3,9 C 96 % 1026,3 hPa 0,0 l/m 0 min 0 min 0 W/m 0,0 km/h (0 Bft) 93,62 %
01.12.2022 00:40 5,9 C 5,6 C 3,9 C 96 % 1026,4 hPa 0,0 l/m 0 min 0 min 0 W/m 6,4 km/h (2 Bft) 93,62 %
01.12.2022 00:42 5,9 C 5,6 C 3,9 C 96 % 1026,4 hPa 0,0 l/m 0 min 0 min 0 W/m 16,1 km/h (3 Bft) 95,65 %
01.12.2022 00:44 5,9 C 5,6 C 3,9 C 96 % 1026,4 hPa 0,0 l/m 0 min 0 min 0 W/m 9,7 km/h (2 Bft) 93,62 %
01.12.2022 00:46 5,9 C 5,6 C 3,9 C 96 % 1026,4 hPa 0,0 l/m 0 min 0 min 0 W/m 9,7 km/h (2 Bft) 95,74 %
01.12.2022 00:48 5,9 C 5,6 C 3,9 C 96 % 1026,3 hPa 0,0 l/m 0 min 0 min 0 W/m 0,0 km/h (0 Bft) 97,87 %
01.12.2022 00:50 5,9 C 5,6 C 3,9 C 96 % 1026,3 hPa 0,0 l/m 0 min 0 min 0 W/m 6,4 km/h (2 Bft) 97,87 %
01.12.2022 00:52 5,9 C 5,6 C 3,9 C 96 % 1026,4 hPa 0,0 l/m 0 min 0 min 0 W/m 9,7 km/h (2 Bft) 97,87 %
01.12.2022 00:54 5,9 C 5,6 C 3,9 C 96 % 1026,3 hPa 0,0 l/m 0 min 0 min 0 W/m 6,4 km/h (2 Bft) 97,83 %
01.12.2022 00:56 5,9 C 5,6 C 3,9 C 96 % 1026,4 hPa 0,0 l/m 0 min 0 min 0 W/m 3,2 km/h (1 Bft) 97,87 %
01.12.2022 00:58 5,9 C 5,6 C 3,9 C 96 % 1026,3 hPa 0,0 l/m 0 min 0 min 0 W/m 3,2 km/h (1 Bft) 97,87 %
01.12.2022 01:00 5,9 C 5,6 C 3,9 C 96 % 1026,3 hPa 0,0 l/m 0 min 0 min 0 W/m 9,7 km/h (2 Bft) 97,87 %
01.12.2022 01:02 5,9 C 5,6 C 3,9 C 96 % 1026,3 hPa 0,0 l/m 0 min 0 min 0 W/m 3,2 km/h (1 Bft) 95,74 %
01.12.2022 01:04 5,9 C 5,6 C 3,9 C 96 % 1026,3 hPa 0,0 l/m 0 min 0 min 0 W/m 12,9 km/h (3 Bft) 97,92 %
01.12.2022 01:06 5,9 C 5,6 C 3,9 C 96 % 1026,4 hPa 0,0 l/m 0 min 0 min 0 W/m 6,4 km/h (2 Bft) 96,61 %
01.12.2022 01:08 5,9 C 5,6 C 3,9 C 96 % 1026,3 hPa 0,0 l/m 0 min 0 min 0 W/m 6,4 km/h (2 Bft) 97,14 %
01.12.2022 01:10 5,9 C 5,6 C 3,9 C 96 % 1026,3 hPa 0,0 l/m 0 min 0 min 0 W/m 3,2 km/h (1 Bft) 95,74 %
01.12.2022 01:12 5,9 C 5,6 C 3,9 C 96 % 1026,3 hPa 0,0 l/m 0 min 0 min 0 W/m 3,2 km/h (1 Bft) 97,87 %
01.12.2022 01:14 5,9 C 5,6 C 3,9 C 96 % 1026,2 hPa 0,0 l/m 0 min 0 min 0 W/m 9,7 km/h (2 Bft) 97,87 %
01.12.2022 01:16 5,9 C 5,6 C 3,9 C 96 % 1026,2 hPa 0,0 l/m 0 min 0 min 0 W/m 6,4 km/h (2 Bft) 97,83 %
01.12.2022 01:18 5,9 C 5,6 C 3,9 C 96 % 1026,2 hPa 0,0 l/m 0 min 0 min 0 W/m 6,4 km/h (2 Bft) 97,87 %
01.12.2022 01:20 5,9 C 5,6 C 3,9 C 96 % 1026,2 hPa 0,0 l/m 0 min 0 min 0 W/m 6,4 km/h (2 Bft) 97,87 %
01.12.2022 01:22 5,9 C 5,6 C 3,9 C 96 % 1026,2 hPa 0,0 l/m 0 min 0 min 0 W/m 6,4 km/h (2 Bft) 97,87 %
01.12.2022 01:24 5,9 C 5,6 C 3,9 C 96 % 1026,2 hPa 0,0 l/m 0 min 0 min 0 W/m 6,4 km/h (2 Bft) 97,87 %
01.12.2022 01:26 5,9 C 5,6 C 3,9 C 96 % 1026,3 hPa 0,0 l/m 0 min 0 min 0 W/m 3,2 km/h (1 Bft) 97,87 %
01.12.2022 01:28 5,9 C 5,6 C 3,9 C 96 % 1026,2 hPa 0,0 l/m 0 min 0 min 0 W/m 3,2 km/h (1 Bft) 97,83 %
01.12.2022 01:30 5,9 C 5,6 C 3,9 C 96 % 1026,2 hPa 0,0 l/m 0 min 0 min 0 W/m 6,4 km/h (2 Bft) 97,87 %
01.12.2022 01:32 5,9 C 5,6 C 3,9 C 96 % 1026,2 hPa 0,0 l/m 0 min 0 min 0 W/m 6,4 km/h (2 Bft) 97,87 %
01.12.2022 01:34 5,9 C 5,6 C 3,9 C 96 % 1026,2 hPa 0,0 l/m 0 min 0 min 0 W/m 3,2 km/h (1 Bft) 93,62 %
01.12.2022 01:36 5,9 C 5,6 C 3,9 C 96 % 1026,2 hPa 0,0 l/m 0 min 0 min 0 W/m 6,4 km/h (2 Bft) 100,00 %
01.12.2022 01:38 5,9 C 5,6 C 3,9 C 96 % 1026,2 hPa 0,0 l/m 0 min 0 min 0 W/m 3,2 km/h (1 Bft) 100,00 %
01.12.2022 01:40 5,9 C 5,6 C 3,9 C 96 % 1026,3 hPa 0,0 l/m 0 min 0 min 0 W/m 3,2 km/h (1 Bft) 100,00 %
01.12.2022 01:42 5,8 C 5,6 C 3,9 C 96 % 1026,2 hPa 0,0 l/m 0 min 0 min 0 W/m 6,4 km/h (2 Bft) 100,00 %
01.12.2022 01:44 5,8 C 5,6 C 3,9 C 96 % 1026,2 hPa 0,0 l/m 0 min 0 min 0 W/m 3,2 km/h (1 Bft) 100,00 %
01.12.2022 01:46 5,8 C 5,6 C 3,9 C 96 % 1026,2 hPa 0,0 l/m 0 min 0 min 0 W/m 3,2 km/h (1 Bft) 100,00 %
01.12.2022 01:48 5,8 C 5,6 C 3,9 C 96 % 1026,3 hPa 0,0 l/m 0 min 0 min 0 W/m 3,2 km/h (1 Bft) 100,00 %
01.12.2022 01:50 5,8 C 5,6 C 3,9 C 96 % 1026,3 hPa 0,0 l/m 0 min 0 min 0 W/m 6,4 km/h (2 Bft) 100,00 %
01.12.2022 01:52 5,8 C 5,6 C 3,9 C 96 % 1026,3 hPa 0,0 l/m 0 min 0 min 0 W/m 9,7 km/h (2 Bft) 97,83 %
01.12.2022 01:54 5,8 C 5,6 C 3,9 C 96 % 1026,3 hPa 0,0 l/m 0 min 0 min 0 W/m 9,7 km/h (2 Bft) 100,00 %
01.12.2022 01:56 5,8 C 5,6 C 3,9 C 96 % 1026,3 hPa 0,0 l/m 0 min 0 min 0 W/m 9,7 km/h (2 Bft) 100,00 %
01.12.2022 01:58 5,8 C 5,0 C 3,9 C 96 % 1026,3 hPa 0,0 l/m 0 min 0 min 0 W/m 3,2 km/h (1 Bft) 100,00 %
01.12.2022 02:00 5,8 C 5,6 C 3,9 C 96 % 1026,3 hPa 0,0 l/m 0 min 0 min 0 W/m 0,0 km/h (0 Bft) 97,87 %
01.12.2022 02:02 5,8 C 5,6 C 3,9 C 96 % 1026,3 hPa 0,0 l/m 0 min 0 min 0 W/m 0,0 km/h (0 Bft) 100,00 %
01.12.2022 02:04 5,8 C 5,6 C 3,9 C 96 % 1026,3 hPa 0,0 l/m 0 min 0 min 0 W/m 12,9 km/h (3 Bft) 97,62 %
01.12.2022 02:06 5,8 C 5,0 C 3,9 C 96 % 1026,3 hPa 0,0 l/m 0 min 0 min 0 W/m 9,7 km/h (2 Bft) 100,00 %
01.12.2022 02:08 5,8 C 5,0 C 3,9 C 96 % 1026,3 hPa 0,0 l/m 0 min 0 min 0 W/m 6,4 km/h (2 Bft) 100,00 %
01.12.2022 02:10 5,8 C 5,0 C 3,9 C 96 % 1026,3 hPa 0,0 l/m 0 min 0 min 0 W/m 6,4 km/h (2 Bft) 97,87 %
01.12.2022 02:14 5,8 C 5,0 C 3,9 C 96 % 1026,3 hPa 0,0 l/m 0 min 0 min 0 W/m 3,2 km/h (1 Bft) 100,00 %
01.12.2022 02:16 5,8 C 5,0 C 3,9 C 96 % 1026,3 hPa 0,0 l/m 0 min 0 min 0 W/m 3,2 km/h (1 Bft) 100,00 %
01.12.2022 02:18 5,8 C 5,0 C 3,9 C 96 % 1026,3 hPa 0,0 l/m 0 min 0 min 0 W/m 3,2 km/h (1 Bft) 97,83 %
01.12.2022 02:20 5,8 C 5,0 C 3,9 C 96 % 1026,4 hPa 0,0 l/m 0 min 0 min 0 W/m 6,4 km/h (2 Bft) 97,87 %
01.12.2022 02:22 5,8 C 5,0 C 3,9 C 96 % 1026,4 hPa 0,0 l/m 0 min 0 min 0 W/m 6,4 km/h (2 Bft) 97,87 %
01.12.2022 02:24 5,8 C 5,0 C 3,9 C 96 % 1026,4 hPa 0,0 l/m 0 min 0 min 0 W/m 6,4 km/h (2 Bft) 95,74 %
01.12.2022 02:26 5,8 C 5,0 C 3,3 C 96 % 1026,4 hPa 0,0 l/m 0 min 0 min 0 W/m 6,4 km/h (2 Bft) 97,87 %
01.12.2022 02:28 5,8 C 5,0 C 3,9 C 96 % 1026,4 hPa 0,0 l/m 0 min 0 min 0 W/m 6,4 km/h (2 Bft) 97,87 %
01.12.2022 02:30 5,8 C 5,0 C 3,3 C 96 % 1026,4 hPa 0,0 l/m 0 min 0 min 0 W/m 9,7 km/h (2 Bft) 97,83 %
01.12.2022 02:32 5,8 C 5,0 C 3,3 C 96 % 1026,4 hPa 0,0 l/m 0 min 0 min 0 W/m 6,4 km/h (2 Bft) 97,87 %
01.12.2022 02:34 5,8 C 5,0 C 3,3 C 96 % 1026,4 hPa 0,0 l/m 0 min 0 min 0 W/m 12,9 km/h (3 Bft) 97,87 %
01.12.2022 02:36 5,7 C 5,0 C 3,3 C 96 % 1026,5 hPa 0,0 l/m 0 min 0 min 0 W/m 6,4 km/h (2 Bft) 97,87 %
01.12.2022 02:38 5,8 C 5,0 C 3,3 C 96 % 1026,5 hPa 0,0 l/m 0 min 0 min 0 W/m 6,4 km/h (2 Bft) 95,74 %
01.12.2022 02:40 5,7 C 5,0 C 3,3 C 96 % 1026,5 hPa 0,0 l/m 0 min 0 min 0 W/m 3,2 km/h (1 Bft) 97,87 %
01.12.2022 02:42 5,8 C 5,0 C 3,3 C 96 % 1026,5 hPa 0,0 l/m 0 min 0 min 0 W/m 9,7 km/h (2 Bft) 100,00 %
01.12.2022 02:44 5,7 C 5,0 C 3,3 C 96 % 1026,6 hPa 0,0 l/m 0 min 0 min 0 W/m 6,4 km/h (2 Bft) 100,00 %
01.12.2022 02:46 5,8 C 5,0 C 3,3 C 97 % 1026,6 hPa 0,0 l/m 0 min 0 min 0 W/m 3,2 km/h (1 Bft) 100,00 %
01.12.2022 02:48 5,8 C 5,0 C 3,3 C 97 % 1026,6 hPa 0,0 l/m 0 min 0 min 0 W/m 6,4 km/h (2 Bft) 100,00 %
01.12.2022 02:50 5,8 C 5,0 C 3,3 C 97 % 1026,6 hPa 0,0 l/m 0 min 0 min 0 W/m 6,4 km/h (2 Bft) 100,00 %
01.12.2022 02:52 5,7 C 5,0 C 3,3 C 97 % 1026,6 hPa 0,0 l/m 0 min 0 min 0 W/m 12,9 km/h (3 Bft) 97,87 %
01.12.2022 02:54 5,7 C 5,0 C 3,3 C 97 % 1026,6 hPa 0,0 l/m 0 min 0 min 0 W/m 3,2 km/h (1 Bft) 100,00 %
01.12.2022 02:56 5,7 C 5,0 C 3,3 C 97 % 1026,6 hPa 0,0 l/m 0 min 0 min 0 W/m 9,7 km/h (2 Bft) 100,00 %
01.12.2022 02:58 5,7 C 5,0 C 3,3 C 97 % 1026,6 hPa 0,0 l/m 0 min 0 min 0 W/m 6,4 km/h (2 Bft) 72,34 %
01.12.2022 03:00 5,7 C 5,0 C 3,3 C 97 % 1026,5 hPa 0,0 l/m 0 min 0 min 0 W/m 9,7 km/h (2 Bft) 66,67 %
01.12.2022 03:02 5,7 C 5,0 C 3,3 C 97 % 1026,6 hPa 0,0 l/m 0 min 0 min 0 W/m 12,9 km/h (3 Bft) 95,74 %
01.12.2022 03:04 5,7 C 5,0 C 3,3 C 97 % 1026,6 hPa 0,0 l/m 0 min 0 min 0 W/m 3,2 km/h (1 Bft) 93,18 %
01.12.2022 03:06 5,7 C 5,0 C 3,3 C 97 % 1026,6 hPa 0,0 l/m 0 min 0 min 0 W/m 6,4 km/h (2 Bft) 98,31 %
01.12.2022 03:08 5,7 C 5,0 C 3,3 C 97 % 1026,7 hPa 0,0 l/m 0 min 0 min 0 W/m 9,7 km/h (2 Bft) 97,14 %
01.12.2022 03:10 5,7 C 5,0 C 3,3 C 97 % 1026,6 hPa 0,0 l/m 0 min 0 min 0 W/m 16,1 km/h (3 Bft) 95,74 %
01.12.2022 03:12 5,7 C 5,0 C 3,3 C 97 % 1026,6 hPa 0,0 l/m 0 min 0 min 0 W/m 6,4 km/h (2 Bft) 95,65 %
01.12.2022 03:14 5,7 C 5,0 C 3,3 C 97 % 1026,6 hPa 0,0 l/m 0 min 0 min 0 W/m 6,4 km/h (2 Bft) 97,87 %
01.12.2022 03:16 5,7 C 5,0 C 3,3 C 97 % 1026,6 hPa 0,0 l/m 0 min 0 min 0 W/m 3,2 km/h (1 Bft) 97,87 %
01.12.2022 03:18 5,7 C 5,0 C 3,3 C 97 % 1026,6 hPa 0,0 l/m 0 min 0 min 0 W/m 12,9 km/h (3 Bft) 97,87 %
01.12.2022 03:20 5,7 C 5,0 C 3,3 C 97 % 1026,6 hPa 0,0 l/m 0 min 0 min 0 W/m 12,9 km/h (3 Bft) 93,62 %
01.12.2022 03:22 5,7 C 5,0 C 3,3 C 97 % 1026,6 hPa 0,0 l/m 0 min 0 min 0 W/m 3,2 km/h (1 Bft) 95,74 %
01.12.2022 03:24 5,7 C 5,0 C 3,3 C 97 % 1026,6 hPa 0,0 l/m 0 min 0 min 0 W/m 3,2 km/h (1 Bft) 95,65 %
01.12.2022 03:26 5,7 C 5,0 C 3,3 C 97 % 1026,6 hPa 0,0 l/m 0 min 0 min 0 W/m 6,4 km/h (2 Bft) 93,62 %
01.12.2022 03:28 5,7 C 5,0 C 3,3 C 97 % 1026,6 hPa 0,0 l/m 0 min 0 min 0 W/m 9,7 km/h (2 Bft) 95,74 %
01.12.2022 03:30 5,7 C 5,0 C 3,3 C 97 % 1026,6 hPa 0,0 l/m 0 min 0 min 0 W/m 9,7 km/h (2 Bft) 95,74 %
01.12.2022 03:32 5,7 C 5,0 C 3,3 C 97 % 1026,6 hPa 0,0 l/m 0 min 0 min 0 W/m 3,2 km/h (1 Bft) 93,62 %
01.12.2022 03:34 5,7 C 5,0 C 3,3 C 97 % 1026,5 hPa 0,0 l/m 0 min 0 min 0 W/m 9,7 km/h (2 Bft) 93,62 %
01.12.2022 03:36 5,7 C 5,0 C 3,3 C 97 % 1026,5 hPa 0,0 l/m 0 min 0 min 0 W/m 6,4 km/h (2 Bft) 95,65 %
01.12.2022 03:38 5,7 C 5,0 C 3,3 C 97 % 1026,5 hPa 0,0 l/m 0 min 0 min 0 W/m 3,2 km/h (1 Bft) 95,74 %
01.12.2022 03:40 5,7 C 5,0 C 3,3 C 97 % 1026,5 hPa 0,0 l/m 0 min 0 min 0 W/m 6,4 km/h (2 Bft) 93,62 %
01.12.2022 03:42 5,7 C 5,0 C 3,3 C 97 % 1026,5 hPa 0,0 l/m 0 min 0 min 0 W/m 3,2 km/h (1 Bft) 93,62 %
01.12.2022 03:44 5,7 C 5,0 C 3,3 C 97 % 1026,5 hPa 0,0 l/m 0 min 0 min 0 W/m 12,9 km/h (3 Bft) 95,74 %
01.12.2022 03:46 5,6 C 5,0 C 3,3 C 97 % 1026,5 hPa 0,0 l/m 0 min 0 min 0 W/m 6,4 km/h (2 Bft) 95,74 %
01.12.2022 03:48 5,6 C 5,0 C 3,3 C 97 % 1026,5 hPa 0,0 l/m 0 min 0 min 0 W/m 9,7 km/h (2 Bft) 95,65 %
01.12.2022 03:50 5,6 C 5,0 C 3,3 C 97 % 1026,5 hPa 0,0 l/m 0 min 0 min 0 W/m 16,1 km/h (3 Bft) 91,49 %
01.12.2022 03:52 5,6 C 5,0 C 3,3 C 97 % 1026,5 hPa 0,0 l/m 0 min 0 min 0 W/m 6,4 km/h (2 Bft) 93,62 %
01.12.2022 03:54 5,6 C 5,0 C 3,3 C 97 % 1026,5 hPa 0,0 l/m 0 min 0 min 0 W/m 9,7 km/h (2 Bft) 93,62 %
01.12.2022 03:56 5,6 C 5,0 C 3,3 C 97 % 1026,5 hPa 0,0 l/m 0 min 0 min 0 W/m 6,4 km/h (2 Bft) 95,74 %
01.12.2022 03:58 5,6 C 5,0 C 3,3 C 97 % 1026,5 hPa 0,0 l/m 0 min 0 min 0 W/m 6,4 km/h (2 Bft) 95,65 %
01.12.2022 04:00 5,6 C 5,0 C 3,3 C 97 % 1026,5 hPa 0,0 l/m 0 min 0 min 0 W/m 16,1 km/h (3 Bft) 95,74 %
01.12.2022 04:02 5,6 C 5,0 C 3,3 C 97 % 1026,6 hPa 0,0 l/m 0 min 0 min 0 W/m 6,4 km/h (2 Bft) 93,62 %
01.12.2022 04:04 5,6 C 5,0 C 3,3 C 97 % 1026,6 hPa 0,0 l/m 0 min 0 min 0 W/m 12,9 km/h (3 Bft) 97,96 %
01.12.2022 04:06 5,6 C 5,0 C 3,3 C 97 % 1026,5 hPa 0,0 l/m 0 min 0 min 0 W/m 9,7 km/h (2 Bft) 96,67 %
01.12.2022 04:08 5,6 C 5,0 C 3,3 C 97 % 1026,5 hPa 0,0 l/m 0 min 0 min 0 W/m 12,9 km/h (3 Bft) 100,00 %
01.12.2022 04:10 5,6 C 5,0 C 3,3 C 97 % 1026,6 hPa 0,0 l/m 0 min 0 min 0 W/m 6,4 km/h (2 Bft) 97,87 %
01.12.2022 04:12 5,6 C 5,0 C 3,3 C 97 % 1026,5 hPa 0,0 l/m 0 min 0 min 0 W/m 6,4 km/h (2 Bft) 97,87 %
01.12.2022 04:14 5,6 C 5,0 C 3,3 C 97 % 1026,5 hPa 0,0 l/m 0 min 0 min 0 W/m 3,2 km/h (1 Bft) 97,87 %
01.12.2022 04:16 5,6 C 5,0 C 3,3 C 97 % 1026,5 hPa 0,0 l/m 0 min 0 min 0 W/m 3,2 km/h (1 Bft) 93,48 %
01.12.2022 04:18 5,6 C 5,0 C 3,3 C 97 % 1026,5 hPa 0,0 l/m 0 min 0 min 0 W/m 12,9 km/h (3 Bft) 97,87 %
01.12.2022 04:20 5,6 C 5,0 C 3,3 C 97 % 1026,5 hPa 0,0 l/m 0 min 0 min 0 W/m 6,4 km/h (2 Bft) 97,87 %
01.12.2022 04:22 5,6 C 5,0 C 3,3 C 97 % 1026,5 hPa 0,0 l/m 0 min 0 min 0 W/m 3,2 km/h (1 Bft) 97,87 %
01.12.2022 04:24 5,6 C 5,0 C 3,3 C 97 % 1026,5 hPa 0,0 l/m 0 min 0 min 0 W/m 6,4 km/h (2 Bft) 97,87 %
01.12.2022 04:26 5,6 C 5,0 C 3,3 C 97 % 1026,5 hPa 0,0 l/m 0 min 0 min 0 W/m 6,4 km/h (2 Bft) 97,87 %
01.12.2022 04:28 5,6 C 5,0 C 3,3 C 97 % 1026,5 hPa 0,0 l/m 0 min 0 min 0 W/m 12,9 km/h (3 Bft) 100,00 %
01.12.2022 04:30 5,6 C 5,0 C 3,3 C 97 % 1026,5 hPa 0,0 l/m 0 min 0 min 0 W/m 6,4 km/h (2 Bft) 97,87 %
01.12.2022 04:32 5,6 C 5,0 C 3,3 C 97 % 1026,5 hPa 0,0 l/m 0 min 0 min 0 W/m 12,9 km/h (3 Bft) 97,87 %
01.12.2022 04:34 5,6 C 5,0 C 3,3 C 97 % 1026,5 hPa 0,0 l/m 0 min 0 min 0 W/m 3,2 km/h (1 Bft) 100,00 %
01.12.2022 04:36 5,6 C 5,0 C 3,3 C 97 % 1026,6 hPa 0,0 l/m 0 min 0 min 0 W/m 6,4 km/h (2 Bft) 100,00 %
01.12.2022 04:38 5,6 C 5,0 C 3,3 C 97 % 1026,5 hPa 0,0 l/m 0 min 0 min 0 W/m 6,4 km/h (2 Bft) 100,00 %
01.12.2022 04:40 5,6 C 5,0 C 3,3 C 97 % 1026,6 hPa 0,0 l/m 0 min 0 min 0 W/m 12,9 km/h (3 Bft) 100,00 %
01.12.2022 04:42 5,6 C 5,0 C 3,3 C 97 % 1026,6 hPa 0,0 l/m 0 min 0 min 0 W/m 6,4 km/h (2 Bft) 100,00 %
01.12.2022 04:44 5,6 C 5,0 C 3,3 C 97 % 1026,6 hPa 0,0 l/m 0 min 0 min 0 W/m 9,7 km/h (2 Bft) 100,00 %
01.12.2022 04:46 5,6 C 5,0 C 3,3 C 97 % 1026,6 hPa 0,0 l/m 0 min 0 min 0 W/m 9,7 km/h (2 Bft) 100,00 %
01.12.2022 04:48 5,6 C 5,0 C 3,3 C 97 % 1026,6 hPa 0,0 l/m 0 min 0 min 0 W/m 6,4 km/h (2 Bft) 100,00 %
01.12.2022 04:50 5,6 C 5,0 C 3,3 C 97 % 1026,6 hPa 0,0 l/m 0 min 0 min 0 W/m 6,4 km/h (2 Bft) 100,00 %
01.12.2022 04:52 5,6 C 5,0 C 3,3 C 97 % 1026,7 hPa 0,0 l/m 0 min 0 min 0 W/m 0,0 km/h (0 Bft) 100,00 %
01.12.2022 04:54 5,6 C 5,0 C 3,3 C 97 % 1026,7 hPa 0,0 l/m 0 min 0 min 0 W/m 0,0 km/h (0 Bft) 95,74 %
01.12.2022 04:56 5,6 C 5,0 C 3,3 C 97 % 1026,7 hPa 0,0 l/m 0 min 0 min 0 W/m 9,7 km/h (2 Bft) 100,00 %
01.12.2022 04:58 5,6 C 5,0 C 3,3 C 97 % 1026,7 hPa 0,0 l/m 0 min 0 min 0 W/m 9,7 km/h (2 Bft) 97,87 %
01.12.2022 05:00 5,6 C 5,0 C 3,3 C 97 % 1026,7 hPa 0,0 l/m 0 min 0 min 0 W/m 12,9 km/h (3 Bft) 97,87 %
01.12.2022 05:02 5,6 C 5,0 C 3,3 C 97 % 1026,7 hPa 0,0 l/m 0 min 0 min 0 W/m 6,4 km/h (2 Bft) 95,74 %
01.12.2022 05:04 5,6 C 5,0 C 3,3 C 97 % 1026,7 hPa 0,0 l/m 0 min 0 min 0 W/m 12,9 km/h (3 Bft) 100,00 %
01.12.2022 05:06 5,6 C 5,0 C 3,3 C 97 % 1026,7 hPa 0,0 l/m 0 min 0 min 0 W/m 3,2 km/h (1 Bft) 98,33 %
01.12.2022 05:08 5,6 C 5,0 C 3,3 C 97 % 1026,7 hPa 0,0 l/m 0 min 0 min 0 W/m 9,7 km/h (2 Bft) 100,00 %
01.12.2022 05:10 5,6 C 5,0 C 3,3 C 97 % 1026,7 hPa 0,0 l/m 0 min 0 min 0 W/m 6,4 km/h (2 Bft) 100,00 %
01.12.2022 05:12 5,6 C 5,0 C 3,3 C 97 % 1026,7 hPa 0,0 l/m 0 min 0 min 0 W/m 6,4 km/h (2 Bft) 97,87 %
01.12.2022 05:14 5,6 C 5,0 C 3,3 C 97 % 1026,7 hPa 0,0 l/m 0 min 0 min 0 W/m 12,9 km/h (3 Bft) 100,00 %
01.12.2022 05:16 5,6 C 5,0 C 3,3 C 97 % 1026,7 hPa 0,0 l/m 0 min 0 min 0 W/m 6,4 km/h (2 Bft) 100,00 %
01.12.2022 05:18 5,5 C 5,0 C 3,3 C 97 % 1026,7 hPa 0,0 l/m 0 min 0 min 0 W/m 0,0 km/h (0 Bft) 97,87 %
01.12.2022 05:20 5,5 C 5,0 C 3,3 C 97 % 1026,7 hPa 0,0 l/m 0 min 0 min 0 W/m 9,7 km/h (2 Bft) 100,00 %
01.12.2022 05:22 5,5 C 5,0 C 3,3 C 97 % 1026,7 hPa 0,0 l/m 0 min 0 min 0 W/m 12,9 km/h (3 Bft) 100,00 %
01.12.2022 05:24 5,5 C 5,0 C 3,3 C 97 % 1026,7 hPa 0,0 l/m 0 min 0 min 0 W/m 6,4 km/h (2 Bft) 93,62 %
01.12.2022 05:26 5,5 C 5,0 C 3,3 C 97 % 1026,7 hPa 0,0 l/m 0 min 0 min 0 W/m 9,7 km/h (2 Bft) 100,00 %
01.12.2022 05:28 5,5 C 5,0 C 3,3 C 97 % 1026,7 hPa 0,0 l/m 0 min 0 min 0 W/m 12,9 km/h (3 Bft) 97,87 %
01.12.2022 05:30 5,4 C 5,0 C 3,3 C 97 % 1026,6 hPa 0,0 l/m 0 min 0 min 0 W/m 3,2 km/h (1 Bft) 95,74 %
01.12.2022 05:32 5,4 C 5,0 C 3,3 C 97 % 1026,6 hPa 0,0 l/m 0 min 0 min 0 W/m 6,4 km/h (2 Bft) 100,00 %
01.12.2022 05:34 5,4 C 5,0 C 3,3 C 97 % 1026,6 hPa 0,0 l/m 0 min 0 min 0 W/m 16,1 km/h (3 Bft) 100,00 %
01.12.2022 05:36 5,4 C 5,0 C 3,3 C 97 % 1026,6 hPa 0,0 l/m 0 min 0 min 0 W/m 6,4 km/h (2 Bft) 97,87 %
01.12.2022 05:38 5,4 C 5,0 C 3,3 C 97 % 1026,7 hPa 0,0 l/m 0 min 0 min 0 W/m 16,1 km/h (3 Bft) 97,83 %
01.12.2022 05:40 5,4 C 5,0 C 3,3 C 97 % 1026,7 hPa 0,0 l/m 0 min 0 min 0 W/m 6,4 km/h (2 Bft) 100,00 %
01.12.2022 05:42 5,4 C 5,0 C 3,3 C 97 % 1026,7 hPa 0,0 l/m 0 min 0 min 0 W/m 3,2 km/h (1 Bft) 95,74 %
01.12.2022 05:44 5,4 C 5,0 C 3,3 C 97 % 1026,7 hPa 0,0 l/m 0 min 0 min 0 W/m 12,9 km/h (3 Bft) 100,00 %
01.12.2022 05:46 5,4 C 5,0 C 3,3 C 97 % 1026,7 hPa 0,0 l/m 0 min 0 min 0 W/m 12,9 km/h (3 Bft) 97,87 %
01.12.2022 05:48 5,4 C 5,0 C 3,3 C 97 % 1026,7 hPa 0,0 l/m 0 min 0 min 0 W/m 6,4 km/h (2 Bft) 95,74 %
01.12.2022 05:50 5,4 C 5,0 C 3,3 C 97 % 1026,6 hPa 0,0 l/m 0 min 0 min 0 W/m 9,7 km/h (2 Bft) 97,83 %
01.12.2022 05:52 5,4 C 5,0 C 3,3 C 97 % 1026,6 hPa 0,0 l/m 0 min 0 min 0 W/m 6,4 km/h (2 Bft) 95,74 %
01.12.2022 05:54 5,4 C 5,0 C 3,3 C 97 % 1026,6 hPa 0,0 l/m 0 min 0 min 0 W/m 9,7 km/h (2 Bft) 93,62 %
01.12.2022 05:56 5,5 C 5,0 C 3,3 C 97 % 1026,6 hPa 0,0 l/m 0 min 0 min 0 W/m 6,4 km/h (2 Bft) 95,74 %
01.12.2022 05:58 5,4 C 5,0 C 3,3 C 97 % 1026,6 hPa 0,0 l/m 0 min 0 min 0 W/m 3,2 km/h (1 Bft) 93,62 %
01.12.2022 06:00 5,4 C 5,0 C 3,3 C 97 % 1026,5 hPa 0,0 l/m 0 min 0 min 0 W/m 3,2 km/h (1 Bft) 95,74 %
01.12.2022 06:02 5,5 C 5,0 C 3,3 C 97 % 1026,5 hPa 0,0 l/m 0 min 0 min 0 W/m 6,4 km/h (2 Bft) 95,65 %
01.12.2022 06:04 5,4 C 5,0 C 3,3 C 97 % 1026,6 hPa 0,0 l/m 0 min 0 min 0 W/m 6,4 km/h (2 Bft) 91,49 %
01.12.2022 06:07 5,4 C 5,0 C 3,3 C 97 % 1026,6 hPa 0,0 l/m 0 min 0 min 0 W/m 3,2 km/h (1 Bft) 92,96 %
01.12.2022 06:08 5,4 C 5,0 C 3,3 C 97 % 1026,6 hPa 0,0 l/m 0 min 0 min 0 W/m 3,2 km/h (1 Bft) 95,65 %
01.12.2022 06:12 5,5 C 5,0 C 3,3 C 97 % 1026,5 hPa 0,0 l/m 0 min 0 min 0 W/m 9,7 km/h (2 Bft) 93,22 %
01.12.2022 06:14 5,4 C 5,0 C 3,3 C 97 % 1026,5 hPa 0,0 l/m 0 min 0 min 0 W/m 9,7 km/h (2 Bft) 93,62 %
01.12.2022 06:16 5,4 C 5,0 C 3,3 C 97 % 1026,5 hPa 0,0 l/m 0 min 0 min 0 W/m 6,4 km/h (2 Bft) 93,62 %
01.12.2022 06:18 5,4 C 5,0 C 3,3 C 97 % 1026,6 hPa 0,0 l/m 0 min 0 min 0 W/m 6,4 km/h (2 Bft) 91,30 %
01.12.2022 06:20 5,4 C 5,0 C 3,3 C 97 % 1026,5 hPa 0,0 l/m 0 min 0 min 0 W/m 9,7 km/h (2 Bft) 93,62 %
01.12.2022 06:22 5,4 C 5,0 C 3,3 C 97 % 1026,5 hPa 0,0 l/m 0 min 0 min 0 W/m 6,4 km/h (2 Bft) 91,49 %
01.12.2022 06:24 5,4 C 5,0 C 3,3 C 97 % 1026,6 hPa 0,0 l/m 0 min 0 min 0 W/m 3,2 km/h (1 Bft) 93,62 %
01.12.2022 06:26 5,4 C 5,0 C 3,3 C 97 % 1026,6 hPa 0,0 l/m 0 min 0 min 0 W/m 6,4 km/h (2 Bft) 95,74 %
01.12.2022 06:28 5,4 C 5,0 C 3,3 C 97 % 1026,6 hPa 0,0 l/m 0 min 0 min 0 W/m 6,4 km/h (2 Bft) 91,49 %
01.12.2022 06:30 5,4 C 5,0 C 3,3 C 97 % 1026,7 hPa 0,0 l/m 0 min 0 min 0 W/m 12,9 km/h (3 Bft) 97,87 %
01.12.2022 06:32 5,4 C 5,0 C 3,3 C 97 % 1026,6 hPa 0,0 l/m 0 min 0 min 0 W/m 6,4 km/h (2 Bft) 97,83 %
01.12.2022 06:34 5,4 C 5,0 C 3,3 C 97 % 1026,6 hPa 0,0 l/m 0 min 0 min 0 W/m 6,4 km/h (2 Bft) 97,87 %
01.12.2022 06:36 5,4 C 5,0 C 3,3 C 97 % 1026,7 hPa 0,0 l/m 0 min 0 min 0 W/m 6,4 km/h (2 Bft) 97,87 %
01.12.2022 06:38 5,4 C 5,0 C 3,3 C 97 % 1026,6 hPa 0,0 l/m 0 min 0 min 0 W/m 9,7 km/h (2 Bft) 97,87 %
01.12.2022 06:40 5,4 C 5,0 C 3,3 C 97 % 1026,7 hPa 0,0 l/m 0 min 0 min 0 W/m 6,4 km/h (2 Bft) 97,87 %
01.12.2022 06:42 5,4 C 5,0 C 3,3 C 96 % 1026,7 hPa 0,0 l/m 0 min 0 min 0 W/m 16,1 km/h (3 Bft) 97,83 %
01.12.2022 06:44 5,4 C 5,0 C 3,3 C 96 % 1026,7 hPa 0,0 l/m 0 min 0 min 0 W/m 6,4 km/h (2 Bft) 93,62 %
01.12.2022 06:46 5,4 C 5,0 C 3,3 C 96 % 1026,7 hPa 0,0 l/m 0 min 0 min 0 W/m 12,9 km/h (3 Bft) 95,74 %
01.12.2022 06:48 5,4 C 5,0 C 3,3 C 96 % 1026,7 hPa 0,0 l/m 0 min 0 min 0 W/m 3,2 km/h (1 Bft) 97,87 %
01.12.2022 06:50 5,5 C 5,0 C 3,3 C 96 % 1026,7 hPa 0,0 l/m 0 min 0 min 0 W/m 6,4 km/h (2 Bft) 97,87 %
01.12.2022 06:52 5,4 C 5,0 C 3,3 C 96 % 1026,7 hPa 0,0 l/m 0 min 0 min 0 W/m 12,9 km/h (3 Bft) 100,00 %
01.12.2022 06:54 5,4 C 5,0 C 3,3 C 97 % 1026,7 hPa 0,0 l/m 0 min 0 min 0 W/m 12,9 km/h (3 Bft) 97,83 %
01.12.2022 06:56 5,4 C 5,0 C 3,3 C 96 % 1026,8 hPa 0,0 l/m 0 min 0 min 0 W/m 6,4 km/h (2 Bft) 100,00 %
01.12.2022 06:58 5,5 C 5,0 C 3,3 C 97 % 1026,8 hPa 0,0 l/m 0 min 0 min 0 W/m 12,9 km/h (3 Bft) 100,00 %
01.12.2022 07:00 5,5 C 5,0 C 3,3 C 97 % 1026,8 hPa 0,0 l/m 0 min 0 min 0 W/m 6,4 km/h (2 Bft) 97,87 %
01.12.2022 07:02 5,5 C 5,0 C 3,3 C 97 % 1026,8 hPa 0,0 l/m 0 min 0 min 0 W/m 9,7 km/h (2 Bft) 100,00 %
01.12.2022 07:04 5,5 C 5,0 C 3,3 C 97 % 1026,8 hPa 0,0 l/m 0 min 0 min 0 W/m 6,4 km/h (2 Bft) 100,00 %
01.12.2022 07:06 5,5 C 5,0 C 3,3 C 97 % 1026,8 hPa 0,0 l/m 0 min 0 min 0 W/m 12,9 km/h (3 Bft) 100,00 %
01.12.2022 07:08 5,5 C 5,0 C 3,3 C 96 % 1026,9 hPa 0,0 l/m 0 min 0 min 0 W/m 6,4 km/h (2 Bft) 97,87 %
01.12.2022 07:10 5,5 C 5,0 C 3,3 C 96 % 1026,9 hPa 0,0 l/m 0 min 0 min 0 W/m 6,4 km/h (2 Bft) 100,00 %
01.12.2022 07:12 5,5 C 5,0 C 3,3 C 96 % 1026,8 hPa 0,0 l/m 0 min 0 min 0 W/m 6,4 km/h (2 Bft) 100,00 %
01.12.2022 07:14 5,5 C 5,0 C 3,3 C 96 % 1026,9 hPa 0,0 l/m 0 min 0 min 0 W/m 16,1 km/h (3 Bft) 100,00 %
01.12.2022 07:16 5,4 C 5,0 C 3,3 C 96 % 1026,9 hPa 0,0 l/m 0 min 0 min 0 W/m 9,7 km/h (2 Bft) 100,00 %
01.12.2022 07:18 5,4 C 5,0 C 3,3 C 96 % 1026,9 hPa 0,0 l/m 0 min 0 min 0 W/m 16,1 km/h (3 Bft) 100,00 %
01.12.2022 07:20 5,4 C 5,0 C 3,3 C 96 % 1026,9 hPa 0,0 l/m 0 min 0 min 0 W/m 12,9 km/h (3 Bft) 100,00 %
01.12.2022 07:22 5,4 C 5,0 C 3,3 C 96 % 1026,9 hPa 0,0 l/m 0 min 0 min 0 W/m 9,7 km/h (2 Bft) 100,00 %
01.12.2022 07:24 5,4 C 5,0 C 3,3 C 96 % 1026,9 hPa 0,0 l/m 0 min 0 min 0 W/m 6,4 km/h (2 Bft) 100,00 %
01.12.2022 07:26 5,4 C 5,0 C 3,3 C 96 % 1026,9 hPa 0,0 l/m 0 min 0 min 0 W/m 6,4 km/h (2 Bft) 100,00 %
01.12.2022 07:28 5,4 C 5,0 C 3,3 C 96 % 1027,0 hPa 0,0 l/m 0 min 0 min 0 W/m 12,9 km/h (3 Bft) 100,00 %
01.12.2022 07:30 5,4 C 5,0 C 3,3 C 96 % 1026,9 hPa 0,0 l/m 0 min 0 min 0 W/m 6,4 km/h (2 Bft) 100,00 %
01.12.2022 07:32 5,4 C 5,0 C 3,3 C 96 % 1027,0 hPa 0,0 l/m 0 min 0 min 0 W/m 9,7 km/h (2 Bft) 100,00 %
01.12.2022 07:34 5,4 C 5,0 C 3,3 C 96 % 1027,0 hPa 0,0 l/m 0 min 0 min 0 W/m 12,9 km/h (3 Bft) 100,00 %
01.12.2022 07:36 5,4 C 5,0 C 3,3 C 96 % 1027,0 hPa 0,0 l/m 0 min 0 min 0 W/m 6,4 km/h (2 Bft) 100,00 %
01.12.2022 07:38 5,4 C 5,0 C 3,3 C 96 % 1027,0 hPa 0,0 l/m 0 min 0 min 0 W/m 6,4 km/h (2 Bft) 100,00 %
01.12.2022 07:40 5,4 C 5,0 C 3,3 C 96 % 1026,9 hPa 0,0 l/m 0 min 0 min 0 W/m 16,1 km/h (3 Bft) 97,87 %
01.12.2022 07:42 5,3 C 5,0 C 3,3 C 96 % 1026,9 hPa 0,0 l/m 0 min 0 min 0 W/m 6,4 km/h (2 Bft) 95,74 %
01.12.2022 07:44 5,3 C 5,0 C 3,3 C 96 % 1026,9 hPa 0,0 l/m 0 min 0 min 0 W/m 19,3 km/h (3 Bft) 100,00 %
01.12.2022 07:46 5,4 C 5,0 C 3,3 C 96 % 1026,9 hPa 0,0 l/m 0 min 0 min 0 W/m 3,2 km/h (1 Bft) 95,74 %
01.12.2022 07:48 5,3 C 5,0 C 3,3 C 96 % 1026,9 hPa 0,0 l/m 0 min 0 min 0 W/m 9,7 km/h (2 Bft) 97,87 %
01.12.2022 07:50 5,3 C 5,0 C 3,3 C 96 % 1027,0 hPa 0,0 l/m 0 min 0 min 0 W/m 6,4 km/h (2 Bft) 94,34 %
01.12.2022 07:52 5,3 C 5,0 C 3,3 C 96 % 1027,0 hPa 0,0 l/m 0 min 0 min 0 W/m 6,4 km/h (2 Bft) 95,12 %
01.12.2022 07:54 5,3 C 5,0 C 3,3 C 96 % 1027,0 hPa 0,0 l/m 0 min 0 min 0 W/m 9,7 km/h (2 Bft) 97,87 %
01.12.2022 07:56 5,3 C 5,0 C 3,3 C 96 % 1027,0 hPa 0,0 l/m 0 min 0 min 0 W/m 12,9 km/h (3 Bft) 97,83 %
01.12.2022 07:58 5,3 C 5,0 C 3,3 C 96 % 1027,1 hPa 0,0 l/m 0 min 0 min 0 W/m 9,7 km/h (2 Bft) 95,74 %
01.12.2022 08:00 5,3 C 5,0 C 3,3 C 96 % 1027,1 hPa 0,0 l/m 0 min 0 min 0 W/m 6,4 km/h (2 Bft) 97,87 %
01.12.2022 08:02 5,3 C 5,0 C 3,3 C 96 % 1027,1 hPa 0,0 l/m 0 min 0 min 0 W/m 6,4 km/h (2 Bft) 97,87 %
01.12.2022 08:04 5,3 C 5,0 C 3,3 C 96 % 1027,0 hPa 0,0 l/m 0 min 0 min 0 W/m 3,2 km/h (1 Bft) 95,74 %
01.12.2022 08:06 5,3 C 5,0 C 3,3 C 96 % 1027,1 hPa 0,0 l/m 0 min 0 min 0 W/m 6,4 km/h (2 Bft) 95,31 %
01.12.2022 08:08 5,3 C 5,0 C 3,3 C 96 % 1027,1 hPa 0,0 l/m 0 min 0 min 0 W/m 6,4 km/h (2 Bft) 96,55 %
01.12.2022 08:10 5,3 C 5,0 C 3,3 C 96 % 1027,1 hPa 0,0 l/m 0 min 0 min 0 W/m 9,7 km/h (2 Bft) 97,87 %
01.12.2022 08:12 5,4 C 5,0 C 3,3 C 96 % 1027,2 hPa 0,0 l/m 0 min 0 min 0 W/m 9,7 km/h (2 Bft) 97,87 %
01.12.2022 08:14 5,4 C 5,0 C 3,3 C 96 % 1027,2 hPa 0,0 l/m 0 min 0 min 0 W/m 9,7 km/h (2 Bft) 100,00 %
01.12.2022 08:16 5,3 C 5,0 C 3,3 C 96 % 1027,1 hPa 0,0 l/m 0 min 0 min 0 W/m 6,4 km/h (2 Bft) 95,74 %
01.12.2022 08:18 5,4 C 5,0 C 3,3 C 96 % 1027,1 hPa 0,0 l/m 0 min 0 min 0 W/m 0,0 km/h (0 Bft) 100,00 %
01.12.2022 08:20 5,4 C 5,0 C 3,3 C 96 % 1027,1 hPa 0,0 l/m 0 min 0 min 0 W/m 12,9 km/h (3 Bft) 96,15 %
01.12.2022 08:22 5,4 C 5,0 C 3,3 C 96 % 1027,1 hPa 0,0 l/m 0 min 0 min 0 W/m 6,4 km/h (2 Bft) 97,56 %
01.12.2022 08:24 5,4 C 5,0 C 3,3 C 96 % 1027,1 hPa 0,0 l/m 0 min 0 min 0 W/m 9,7 km/h (2 Bft) 97,87 %
01.12.2022 08:26 5,4 C 5,0 C 3,3 C 96 % 1027,1 hPa 0,0 l/m 0 min 0 min 0 W/m 9,7 km/h (2 Bft) 96,23 %
01.12.2022 08:28 5,4 C 5,0 C 3,3 C 96 % 1027,2 hPa 0,0 l/m 0 min 0 min 0 W/m 9,7 km/h (2 Bft) 95,12 %
01.12.2022 08:30 5,4 C 5,0 C 3,3 C 96 % 1027,2 hPa 0,0 l/m 0 min 0 min 0 W/m 9,7 km/h (2 Bft) 95,74 %
01.12.2022 08:32 5,4 C 5,0 C 3,3 C 96 % 1027,2 hPa 0,0 l/m 0 min 0 min 0 W/m 6,4 km/h (2 Bft) 97,83 %
01.12.2022 08:34 5,4 C 5,0 C 3,3 C 96 % 1027,2 hPa 0,0 l/m 0 min 0 min 0 W/m 6,4 km/h (2 Bft) 97,87 %
01.12.2022 08:36 5,4 C 5,0 C 3,3 C 96 % 1027,1 hPa 0,0 l/m 0 min 0 min 0 W/m 0,0 km/h (0 Bft) 98,11 %
01.12.2022 08:38 5,4 C 5,0 C 3,3 C 96 % 1027,2 hPa 0,0 l/m 0 min 0 min 0 W/m 3,2 km/h (1 Bft) 97,56 %
01.12.2022 08:40 5,4 C 5,0 C 3,3 C 96 % 1027,2 hPa 0,0 l/m 0 min 0 min 3 W/m 16,1 km/h (3 Bft) 93,62 %
01.12.2022 08:42 5,4 C 5,0 C 3,3 C 96 % 1027,2 hPa 0,0 l/m 0 min 0 min 1 W/m 12,9 km/h (3 Bft) 97,87 %
01.12.2022 08:44 5,4 C 5,0 C 3,3 C 96 % 1027,2 hPa 0,0 l/m 0 min 0 min 1 W/m 6,4 km/h (2 Bft) 96,15 %
01.12.2022 08:46 5,4 C 5,0 C 3,3 C 96 % 1027,2 hPa 0,0 l/m 0 min 0 min 5 W/m 6,4 km/h (2 Bft) 97,56 %
01.12.2022 08:48 5,4 C 5,0 C 3,3 C 96 % 1027,2 hPa 0,0 l/m 0 min 0 min 5 W/m 9,7 km/h (2 Bft) 95,74 %
01.12.2022 08:50 5,4 C 5,0 C 3,3 C 96 % 1027,2 hPa 0,0 l/m 0 min 0 min 5 W/m 9,7 km/h (2 Bft) 97,87 %
01.12.2022 08:52 5,5 C 5,0 C 3,3 C 96 % 1027,2 hPa 0,0 l/m 0 min 0 min 6 W/m 6,4 km/h (2 Bft) 95,74 %
01.12.2022 08:54 5,4 C 5,0 C 3,3 C 96 % 1027,2 hPa 0,0 l/m 0 min 0 min 7 W/m 3,2 km/h (1 Bft) 96,15 %
01.12.2022 08:56 5,4 C 5,0 C 3,3 C 96 % 1027,2 hPa 0,0 l/m 0 min 0 min 7 W/m 3,2 km/h (1 Bft) 97,87 %
01.12.2022 08:58 5,5 C 5,0 C 3,3 C 96 % 1027,2 hPa 0,0 l/m 0 min 0 min 7 W/m 6,4 km/h (2 Bft) 100,00 %
01.12.2022 09:00 5,5 C 5,0 C 3,3 C 96 % 1027,2 hPa 0,0 l/m 0 min 0 min 7 W/m 6,4 km/h (2 Bft) 100,00 %
01.12.2022 09:05 5,5 C 5,0 C 3,3 C 96 % 1027,3 hPa 0,0 l/m 0 min 0 min 9 W/m 12,9 km/h (3 Bft) 100,00 %
01.12.2022 09:10 5,5 C 5,0 C 3,3 C 96 % 1027,3 hPa 0,0 l/m 0 min 0 min 9 W/m 9,7 km/h (2 Bft) 100,00 %
01.12.2022 09:15 5,6 C 5,0 C 3,3 C 96 % 1027,3 hPa 0,0 l/m 0 min 0 min 9 W/m 12,9 km/h (3 Bft) 100,00 %
01.12.2022 09:20 5,6 C 5,0 C 3,3 C 96 % 1027,3 hPa 0,0 l/m 0 min 0 min 12 W/m 12,9 km/h (3 Bft) 99,12 %
01.12.2022 09:25 5,6 C 5,0 C 3,3 C 96 % 1027,4 hPa 0,0 l/m 0 min 0 min 12 W/m 6,4 km/h (2 Bft) 99,12 %
01.12.2022 09:30 5,6 C 5,0 C 3,3 C 96 % 1027,4 hPa 0,0 l/m 0 min 0 min 12 W/m 6,4 km/h (2 Bft) 100,00 %
01.12.2022 09:35 5,6 C 5,0 C 3,3 C 96 % 1027,4 hPa 0,0 l/m 0 min 0 min 14 W/m 16,1 km/h (3 Bft) 99,12 %
01.12.2022 09:40 5,6 C 5,0 C 3,3 C 96 % 1027,5 hPa 0,0 l/m 0 min 0 min 14 W/m 6,4 km/h (2 Bft) 96,49 %
01.12.2022 09:45 5,6 C 5,0 C 3,3 C 96 % 1027,5 hPa 0,0 l/m 0 min 0 min 14 W/m 16,1 km/h (3 Bft) 97,37 %
01.12.2022 09:50 5,6 C 5,0 C 3,3 C 96 % 1027,5 hPa 0,0 l/m 0 min 0 min 14 W/m 12,9 km/h (3 Bft) 98,25 %
01.12.2022 09:55 5,6 C 5,0 C 3,3 C 95 % 1027,5 hPa 0,0 l/m 0 min 0 min 16 W/m 9,7 km/h (2 Bft) 99,12 %
01.12.2022 10:00 5,6 C 5,0 C 3,3 C 95 % 1027,5 hPa 0,0 l/m 0 min 0 min 16 W/m 12,9 km/h (3 Bft) 100,00 %
01.12.2022 10:05 5,6 C 5,0 C 3,3 C 96 % 1027,5 hPa 0,0 l/m 0 min 0 min 18 W/m 12,9 km/h (3 Bft) 100,00 %
01.12.2022 10:10 5,6 C 5,0 C 3,3 C 96 % 1027,6 hPa 0,0 l/m 0 min 0 min 17 W/m 12,9 km/h (3 Bft) 99,12 %
01.12.2022 10:15 5,6 C 5,0 C 3,3 C 96 % 1027,6 hPa 0,0 l/m 0 min 0 min 15 W/m 16,1 km/h (3 Bft) 100,00 %
01.12.2022 10:20 5,6 C 5,0 C 3,3 C 96 % 1027,5 hPa 0,0 l/m 0 min 0 min 16 W/m 6,4 km/h (2 Bft) 100,00 %
01.12.2022 10:24 5,6 C 5,0 C 3,3 C 96 % 1027,5 hPa 0,0 l/m 0 min 0 min 19 W/m 9,7 km/h (2 Bft) 100,00 %
01.12.2022 10:26 5,6 C 5,0 C 3,3 C 95 % 1027,5 hPa 0,0 l/m 0 min 0 min 19 W/m 9,7 km/h (2 Bft) 100,00 %
01.12.2022 10:28 5,6 C 5,0 C 3,3 C 95 % 1027,6 hPa 0,0 l/m 0 min 0 min 20 W/m 6,4 km/h (2 Bft) 97,87 %
01.12.2022 10:30 5,6 C 5,0 C 3,3 C 95 % 1027,5 hPa 0,0 l/m 0 min 0 min 21 W/m 6,4 km/h (2 Bft) 100,00 %
01.12.2022 10:32 5,6 C 5,0 C 3,3 C 95 % 1027,5 hPa 0,0 l/m 0 min 0 min 21 W/m 3,2 km/h (1 Bft) 100,00 %
01.12.2022 10:34 5,6 C 5,6 C 3,3 C 95 % 1027,6 hPa 0,0 l/m 0 min 0 min 21 W/m 9,7 km/h (2 Bft) 95,74 %
01.12.2022 10:36 5,7 C 5,6 C 3,3 C 95 % 1027,6 hPa 0,0 l/m 0 min 0 min 22 W/m 6,4 km/h (2 Bft) 100,00 %
01.12.2022 10:38 5,7 C 5,6 C 3,3 C 96 % 1027,6 hPa 0,0 l/m 0 min 0 min 22 W/m 9,7 km/h (2 Bft) 100,00 %
01.12.2022 10:40 5,7 C 5,6 C 3,3 C 96 % 1027,6 hPa 0,0 l/m 0 min 0 min 25 W/m 12,9 km/h (3 Bft) 100,00 %
01.12.2022 10:42 5,7 C 5,6 C 3,3 C 96 % 1027,6 hPa 0,0 l/m 0 min 0 min 29 W/m 3,2 km/h (1 Bft) 97,87 %
01.12.2022 10:44 5,7 C 5,6 C 3,3 C 96 % 1027,6 hPa 0,0 l/m 0 min 0 min 26 W/m 16,1 km/h (3 Bft) 97,87 %
01.12.2022 10:46 5,7 C 5,6 C 3,3 C 95 % 1027,5 hPa 0,0 l/m 0 min 0 min 27 W/m 6,4 km/h (2 Bft) 97,87 %
01.12.2022 10:48 5,7 C 5,6 C 3,3 C 95 % 1027,6 hPa 0,0 l/m 0 min 0 min 28 W/m 6,4 km/h (2 Bft) 95,65 %
01.12.2022 10:50 5,7 C 5,6 C 3,3 C 95 % 1027,6 hPa 0,0 l/m 0 min 0 min 28 W/m 6,4 km/h (2 Bft) 95,74 %
01.12.2022 10:52 5,7 C 5,6 C 3,3 C 95 % 1027,6 hPa 0,0 l/m 0 min 0 min 28 W/m 16,1 km/h (3 Bft) 97,87 %
01.12.2022 10:54 5,7 C 5,6 C 3,3 C 95 % 1027,6 hPa 0,0 l/m 0 min 0 min 27 W/m 12,9 km/h (3 Bft) 97,87 %
01.12.2022 10:56 5,7 C 5,6 C 3,3 C 95 % 1027,7 hPa 0,0 l/m 0 min 0 min 26 W/m 6,4 km/h (2 Bft) 97,87 %
01.12.2022 10:58 5,7 C 5,6 C 3,3 C 95 % 1027,6 hPa 0,0 l/m 0 min 0 min 26 W/m 6,4 km/h (2 Bft) 97,83 %
01.12.2022 11:00 5,7 C 5,6 C 3,3 C 96 % 1027,6 hPa 0,0 l/m 0 min 0 min 25 W/m 3,2 km/h (1 Bft) 97,87 %
01.12.2022 11:02 5,7 C 5,6 C 3,3 C 96 % 1027,6 hPa 0,0 l/m 0 min 0 min 26 W/m 12,9 km/h (3 Bft) 97,87 %
01.12.2022 11:04 5,7 C 5,6 C 3,3 C 96 % 1027,5 hPa 0,0 l/m 0 min 0 min 25 W/m 9,7 km/h (2 Bft) 95,74 %
01.12.2022 11:06 5,7 C 5,6 C 3,3 C 96 % 1027,5 hPa 0,0 l/m 0 min 0 min 24 W/m 12,9 km/h (3 Bft) 93,62 %
01.12.2022 11:08 5,7 C 5,6 C 3,3 C 96 % 1027,5 hPa 0,0 l/m 0 min 0 min 25 W/m 6,4 km/h (2 Bft) 97,87 %
01.12.2022 11:10 5,7 C 5,6 C 3,3 C 96 % 1027,5 hPa 0,0 l/m 0 min 0 min 27 W/m 6,4 km/h (2 Bft) 97,83 %
01.12.2022 11:12 5,7 C 5,6 C 3,3 C 96 % 1027,5 hPa 0,0 l/m 0 min 0 min 27 W/m 6,4 km/h (2 Bft) 93,62 %
01.12.2022 11:14 5,7 C 5,6 C 3,3 C 96 % 1027,4 hPa 0,0 l/m 0 min 0 min 28 W/m 6,4 km/h (2 Bft) 97,87 %
01.12.2022 11:16 5,7 C 5,6 C 3,3 C 96 % 1027,5 hPa 0,0 l/m 0 min 0 min 28 W/m 16,1 km/h (3 Bft) 97,87 %
01.12.2022 11:18 5,7 C 5,6 C 3,3 C 96 % 1027,5 hPa 0,0 l/m 0 min 0 min 26 W/m 6,4 km/h (2 Bft) 97,87 %
01.12.2022 11:20 5,7 C 5,6 C 3,3 C 96 % 1027,5 hPa 0,0 l/m 0 min 0 min 22 W/m 22,5 km/h (4 Bft) 97,87 %
01.12.2022 11:22 5,7 C 5,0 C 3,3 C 96 % 1027,4 hPa 0,0 l/m 0 min 0 min 20 W/m 22,5 km/h (4 Bft) 97,83 %
01.12.2022 11:24 5,7 C 5,0 C 3,3 C 96 % 1027,5 hPa 0,0 l/m 0 min 0 min 21 W/m 16,1 km/h (3 Bft) 97,87 %
01.12.2022 11:26 5,7 C 5,0 C 3,3 C 96 % 1027,5 hPa 0,0 l/m 0 min 0 min 22 W/m 9,7 km/h (2 Bft) 97,87 %
01.12.2022 11:28 5,6 C 5,0 C 3,3 C 96 % 1027,4 hPa 0,0 l/m 0 min 0 min 25 W/m 16,1 km/h (3 Bft) 100,00 %
01.12.2022 11:30 5,7 C 5,0 C 3,3 C 96 % 1027,4 hPa 0,0 l/m 0 min 0 min 24 W/m 12,9 km/h (3 Bft) 100,00 %
01.12.2022 11:32 5,6 C 5,0 C 3,3 C 96 % 1027,3 hPa 0,0 l/m 0 min 0 min 27 W/m 12,9 km/h (3 Bft) 100,00 %
01.12.2022 11:34 5,6 C 5,0 C 3,3 C 96 % 1027,4 hPa 0,0 l/m 0 min 0 min 27 W/m 9,7 km/h (2 Bft) 100,00 %
01.12.2022 11:36 5,6 C 5,0 C 3,3 C 95 % 1027,3 hPa 0,0 l/m 0 min 0 min 30 W/m 16,1 km/h (3 Bft) 97,87 %
01.12.2022 11:38 5,6 C 5,0 C 3,3 C 95 % 1027,3 hPa 0,0 l/m 0 min 0 min 36 W/m 12,9 km/h (3 Bft) 97,87 %
01.12.2022 11:40 5,6 C 5,0 C 3,3 C 95 % 1027,3 hPa 0,0 l/m 0 min 0 min 39 W/m 9,7 km/h (2 Bft) 97,87 %
01.12.2022 11:42 5,6 C 5,6 C 3,3 C 95 % 1027,3 hPa 0,0 l/m 0 min 0 min 38 W/m 16,1 km/h (3 Bft) 95,74 %
01.12.2022 11:44 5,6 C 5,6 C 3,3 C 96 % 1027,3 hPa 0,0 l/m 0 min 0 min 34 W/m 3,2 km/h (1 Bft) 95,74 %
01.12.2022 11:46 5,6 C 5,6 C 3,3 C 96 % 1027,3 hPa 0,0 l/m 0 min 0 min 32 W/m 9,7 km/h (2 Bft) 97,83 %
01.12.2022 11:48 5,6 C 5,6 C 3,3 C 96 % 1027,3 hPa 0,0 l/m 0 min 0 min 32 W/m 6,4 km/h (2 Bft) 97,87 %
01.12.2022 11:50 5,7 C 5,6 C 3,3 C 96 % 1027,3 hPa 0,0 l/m 0 min 0 min 35 W/m 3,2 km/h (1 Bft) 97,87 %
01.12.2022 11:52 5,7 C 5,6 C 3,3 C 96 % 1027,3 hPa 0,0 l/m 0 min 0 min 35 W/m 12,9 km/h (3 Bft) 97,87 %
01.12.2022 11:54 5,7 C 5,6 C 3,3 C 96 % 1027,3 hPa 0,0 l/m 0 min 0 min 34 W/m 9,7 km/h (2 Bft) 97,87 %
01.12.2022 11:56 5,7 C 5,6 C 3,3 C 96 % 1027,3 hPa 0,0 l/m 0 min 0 min 39 W/m 6,4 km/h (2 Bft) 95,74 %
01.12.2022 11:58 5,7 C 5,6 C 3,3 C 96 % 1027,3 hPa 0,0 l/m 0 min 0 min 46 W/m 12,9 km/h (3 Bft) 97,83 %
01.12.2022 12:00 5,7 C 5,6 C 3,3 C 96 % 1027,3 hPa 0,0 l/m 0 min 0 min 42 W/m 16,1 km/h (3 Bft) 97,87 %
01.12.2022 12:02 5,7 C 5,6 C 3,3 C 95 % 1027,2 hPa 0,0 l/m 0 min 0 min 39 W/m 6,4 km/h (2 Bft) 91,49 %
01.12.2022 12:04 5,7 C 5,6 C 3,9 C 95 % 1027,2 hPa 0,0 l/m 0 min 0 min 39 W/m 3,2 km/h (1 Bft) 94,00 %
01.12.2022 12:08 5,7 C 5,6 C 3,3 C 96 % 1027,2 hPa 0,0 l/m 0 min 0 min 35 W/m 12,9 km/h (3 Bft) 96,81 %
01.12.2022 12:10 5,7 C 5,6 C 3,3 C 96 % 1027,2 hPa 0,0 l/m 0 min 0 min 31 W/m 3,2 km/h (1 Bft) 97,83 %
01.12.2022 12:12 5,7 C 5,6 C 3,3 C 96 % 1027,2 hPa 0,0 l/m 0 min 0 min 30 W/m 12,9 km/h (3 Bft) 95,74 %
01.12.2022 12:14 5,8 C 5,6 C 3,3 C 96 % 1027,2 hPa 0,0 l/m 0 min 0 min 29 W/m 12,9 km/h (3 Bft) 97,87 %
01.12.2022 12:16 5,8 C 5,6 C 3,3 C 95 % 1027,2 hPa 0,0 l/m 0 min 0 min 25 W/m 6,4 km/h (2 Bft) 95,74 %
01.12.2022 12:18 5,8 C 5,6 C 3,3 C 95 % 1027,2 hPa 0,0 l/m 0 min 0 min 23 W/m 6,4 km/h (2 Bft) 95,74 %
01.12.2022 12:20 5,8 C 5,6 C 3,3 C 95 % 1027,2 hPa 0,0 l/m 0 min 0 min 22 W/m 9,7 km/h (2 Bft) 97,87 %
01.12.2022 12:22 5,7 C 5,6 C 3,3 C 95 % 1027,2 hPa 0,0 l/m 0 min 0 min 20 W/m 12,9 km/h (3 Bft) 97,83 %
01.12.2022 12:24 5,7 C 5,6 C 3,3 C 95 % 1027,2 hPa 0,0 l/m 0 min 0 min 21 W/m 6,4 km/h (2 Bft) 97,87 %
01.12.2022 12:26 5,7 C 5,6 C 3,3 C 95 % 1027,2 hPa 0,0 l/m 0 min 0 min 20 W/m 6,4 km/h (2 Bft) 97,87 %
01.12.2022 12:28 5,7 C 5,6 C 3,3 C 95 % 1027,2 hPa 0,0 l/m 0 min 0 min 18 W/m 6,4 km/h (2 Bft) 97,87 %
01.12.2022 12:30 5,8 C 5,6 C 3,3 C 95 % 1027,2 hPa 0,0 l/m 0 min 0 min 18 W/m 3,2 km/h (1 Bft) 97,87 %
01.12.2022 12:32 5,8 C 5,6 C 3,3 C 95 % 1027,2 hPa 0,0 l/m 0 min 0 min 18 W/m 6,4 km/h (2 Bft) 97,87 %
01.12.2022 12:34 5,7 C 5,6 C 3,3 C 95 % 1027,2 hPa 0,0 l/m 0 min 0 min 19 W/m 9,7 km/h (2 Bft) 97,83 %
01.12.2022 12:36 5,7 C 5,6 C 3,3 C 95 % 1027,1 hPa 0,0 l/m 0 min 0 min 20 W/m 3,2 km/h (1 Bft) 97,87 %
01.12.2022 12:38 5,8 C 5,6 C 3,3 C 95 % 1027,1 hPa 0,0 l/m 0 min 0 min 21 W/m 6,4 km/h (2 Bft) 97,87 %
01.12.2022 12:40 5,7 C 5,6 C 3,3 C 95 % 1027,1 hPa 0,0 l/m 0 min 0 min 21 W/m 6,4 km/h (2 Bft) 97,87 %
01.12.2022 12:42 5,7 C 5,6 C 3,3 C 95 % 1027,2 hPa 0,0 l/m 0 min 0 min 21 W/m 6,4 km/h (2 Bft) 97,87 %
01.12.2022 12:44 5,7 C 5,6 C 3,3 C 95 % 1027,1 hPa 0,0 l/m 0 min 0 min 21 W/m 6,4 km/h (2 Bft) 97,83 %
01.12.2022 12:46 5,7 C 5,6 C 3,3 C 95 % 1027,1 hPa 0,0 l/m 0 min 0 min 21 W/m 6,4 km/h (2 Bft) 97,87 %
01.12.2022 12:48 5,8 C 5,6 C 3,3 C 95 % 1027,1 hPa 0,0 l/m 0 min 0 min 20 W/m 6,4 km/h (2 Bft) 97,87 %
01.12.2022 12:50 5,7 C 5,6 C 3,3 C 95 % 1027,2 hPa 0,0 l/m 0 min 0 min 19 W/m 12,9 km/h (3 Bft) 95,74 %
01.12.2022 12:52 5,7 C 5,6 C 3,3 C 95 % 1027,1 hPa 0,0 l/m 0 min 0 min 20 W/m 6,4 km/h (2 Bft) 97,87 %
01.12.2022 12:54 5,7 C 5,6 C 3,3 C 95 % 1027,1 hPa 0,0 l/m 0 min 0 min 21 W/m 6,4 km/h (2 Bft) 97,87 %
01.12.2022 12:56 5,7 C 5,6 C 3,3 C 95 % 1027,2 hPa 0,0 l/m 0 min 0 min 21 W/m 12,9 km/h (3 Bft) 100,00 %
01.12.2022 12:58 5,7 C 5,6 C 3,3 C 95 % 1027,2 hPa 0,0 l/m 0 min 0 min 18 W/m 16,1 km/h (3 Bft) 95,74 %
01.12.2022 13:00 5,7 C 5,6 C 3,3 C 95 % 1027,2 hPa 0,0 l/m 0 min 0 min 15 W/m 16,1 km/h (3 Bft) 97,87 %
01.12.2022 13:02 5,7 C 5,6 C 3,3 C 95 % 1027,2 hPa 0,0 l/m 0 min 0 min 17 W/m 6,4 km/h (2 Bft) 97,87 %
01.12.2022 13:04 5,7 C 5,6 C 3,3 C 95 % 1027,1 hPa 0,0 l/m 0 min 0 min 17 W/m 3,2 km/h (1 Bft) 100,00 %
01.12.2022 13:06 5,7 C 5,6 C 3,3 C 95 % 1027,1 hPa 0,0 l/m 0 min 0 min 18 W/m 3,2 km/h (1 Bft) 100,00 %
01.12.2022 13:08 5,8 C 5,6 C 3,3 C 95 % 1027,1 hPa 0,0 l/m 0 min 0 min 20 W/m 3,2 km/h (1 Bft) 97,83 %
01.12.2022 13:10 5,8 C 5,6 C 3,3 C 95 % 1027,1 hPa 0,0 l/m 0 min 0 min 18 W/m 16,1 km/h (3 Bft) 97,87 %
01.12.2022 13:12 5,8 C 5,6 C 3,3 C 95 % 1027,1 hPa 0,0 l/m 0 min 0 min 22 W/m 6,4 km/h (2 Bft) 97,87 %
01.12.2022 13:14 5,8 C 5,6 C 3,3 C 95 % 1027,1 hPa 0,0 l/m 0 min 0 min 25 W/m 9,7 km/h (2 Bft) 95,74 %
01.12.2022 13:16 5,8 C 5,6 C 3,3 C 95 % 1027,1 hPa 0,0 l/m 0 min 0 min 27 W/m 9,7 km/h (2 Bft) 97,87 %
01.12.2022 13:18 5,8 C 5,6 C 3,3 C 95 % 1027,1 hPa 0,0 l/m 0 min 0 min 33 W/m 16,1 km/h (3 Bft) 95,74 %
01.12.2022 13:20 5,7 C 5,6 C 3,3 C 95 % 1027,1 hPa 0,0 l/m 0 min 0 min 34 W/m 9,7 km/h (2 Bft) 95,65 %
01.12.2022 13:22 5,7 C 5,6 C 3,3 C 95 % 1027,0 hPa 0,0 l/m 0 min 0 min 38 W/m 3,2 km/h (1 Bft) 97,87 %
01.12.2022 13:24 5,7 C 5,6 C 3,3 C 95 % 1027,0 hPa 0,0 l/m 0 min 0 min 46 W/m 6,4 km/h (2 Bft) 93,62 %
01.12.2022 13:26 5,8 C 5,6 C 3,3 C 95 % 1027,0 hPa 0,0 l/m 0 min 0 min 45 W/m 6,4 km/h (2 Bft) 97,87 %
01.12.2022 13:28 5,8 C 5,6 C 3,3 C 95 % 1027,0 hPa 0,0 l/m 0 min 0 min 36 W/m 9,7 km/h (2 Bft) 95,74 %
01.12.2022 13:30 5,8 C 5,6 C 3,3 C 95 % 1027,0 hPa 0,0 l/m 0 min 0 min 38 W/m 3,2 km/h (1 Bft) 93,62 %
01.12.2022 13:32 5,8 C 5,6 C 3,3 C 95 % 1027,0 hPa 0,0 l/m 0 min 0 min 43 W/m 9,7 km/h (2 Bft) 95,65 %
01.12.2022 13:34 5,8 C 5,6 C 3,3 C 95 % 1026,9 hPa 0,0 l/m 0 min 0 min 33 W/m 3,2 km/h (1 Bft) 95,74 %
01.12.2022 13:36 5,8 C 5,6 C 3,3 C 95 % 1026,9 hPa 0,0 l/m 0 min 0 min 32 W/m 6,4 km/h (2 Bft) 95,74 %
01.12.2022 13:38 5,8 C 5,6 C 3,3 C 95 % 1026,9 hPa 0,0 l/m 0 min 0 min 30 W/m 12,9 km/h (3 Bft) 93,62 %
01.12.2022 13:40 5,8 C 5,6 C 3,3 C 95 % 1026,9 hPa 0,0 l/m 0 min 0 min 29 W/m 6,4 km/h (2 Bft) 95,74 %
01.12.2022 13:42 5,8 C 5,6 C 3,3 C 95 % 1027,0 hPa 0,0 l/m 0 min 0 min 33 W/m 9,7 km/h (2 Bft) 95,74 %
01.12.2022 13:44 5,7 C 5,6 C 3,3 C 95 % 1026,9 hPa 0,0 l/m 0 min 0 min 33 W/m 12,9 km/h (3 Bft) 93,48 %
01.12.2022 13:46 5,7 C 5,6 C 3,3 C 95 % 1026,9 hPa 0,0 l/m 0 min 0 min 39 W/m 6,4 km/h (2 Bft) 95,74 %
01.12.2022 13:48 5,7 C 5,6 C 3,3 C 95 % 1026,8 hPa 0,0 l/m 0 min 0 min 40 W/m 6,4 km/h (2 Bft) 95,56 %
01.12.2022 13:50 5,7 C 5,6 C 3,3 C 95 % 1026,8 hPa 0,0 l/m 0 min 0 min 45 W/m 6,4 km/h (2 Bft) 93,62 %
01.12.2022 13:52 5,7 C 5,6 C 3,3 C 95 % 1026,8 hPa 0,0 l/m 0 min 0 min 38 W/m 6,4 km/h (2 Bft) 95,65 %
01.12.2022 13:54 5,7 C 5,6 C 3,3 C 95 % 1026,7 hPa 0,0 l/m 0 min 0 min 40 W/m 6,4 km/h (2 Bft) 97,87 %
01.12.2022 13:56 5,7 C 5,6 C 3,3 C 95 % 1026,7 hPa 0,0 l/m 0 min 0 min 51 W/m 12,9 km/h (3 Bft) 93,62 %
01.12.2022 13:58 5,7 C 5,6 C 3,3 C 95 % 1026,8 hPa 0,0 l/m 0 min 0 min 63 W/m 6,4 km/h (2 Bft) 95,74 %
01.12.2022 14:00 5,7 C 5,6 C 3,9 C 95 % 1026,7 hPa 0,0 l/m 0 min 0 min 67 W/m 6,4 km/h (2 Bft) 100,00 %
01.12.2022 14:02 5,8 C 5,6 C 3,9 C 95 % 1026,7 hPa 0,0 l/m 0 min 0 min 63 W/m 6,4 km/h (2 Bft) 95,74 %
01.12.2022 14:04 5,8 C 6,1 C 3,9 C 95 % 1026,7 hPa 0,0 l/m 0 min 0 min 65 W/m 6,4 km/h (2 Bft) 97,83 %
01.12.2022 14:06 5,8 C 6,1 C 3,9 C 95 % 1026,7 hPa 0,0 l/m 0 min 0 min 68 W/m 16,1 km/h (3 Bft) 100,00 %
01.12.2022 14:08 5,8 C 6,1 C 3,9 C 95 % 1026,7 hPa 0,0 l/m 0 min 0 min 55 W/m 16,1 km/h (3 Bft) 100,00 %
01.12.2022 14:10 5,8 C 5,6 C 3,9 C 95 % 1026,7 hPa 0,0 l/m 0 min 0 min 51 W/m 6,4 km/h (2 Bft) 97,87 %
01.12.2022 14:12 5,8 C 5,6 C 3,9 C 95 % 1026,7 hPa 0,0 l/m 0 min 0 min 45 W/m 3,2 km/h (1 Bft) 100,00 %
01.12.2022 14:14 5,8 C 5,6 C 3,9 C 95 % 1026,7 hPa 0,0 l/m 0 min 0 min 44 W/m 6,4 km/h (2 Bft) 100,00 %
01.12.2022 14:16 5,8 C 5,6 C 3,9 C 95 % 1026,7 hPa 0,0 l/m 0 min 0 min 49 W/m 6,4 km/h (2 Bft) 97,83 %
01.12.2022 14:18 5,8 C 5,6 C 3,9 C 95 % 1026,7 hPa 0,0 l/m 0 min 0 min 51 W/m 3,2 km/h (1 Bft) 100,00 %
01.12.2022 14:20 5,8 C 5,6 C 3,9 C 95 % 1026,7 hPa 0,0 l/m 0 min 0 min 50 W/m 6,4 km/h (2 Bft) 100,00 %
01.12.2022 14:22 5,8 C 5,6 C 3,9 C 95 % 1026,7 hPa 0,0 l/m 0 min 0 min 48 W/m 6,4 km/h (2 Bft) 97,87 %
01.12.2022 14:24 5,8 C 5,6 C 3,9 C 94 % 1026,7 hPa 0,0 l/m 0 min 0 min 53 W/m 9,7 km/h (2 Bft) 100,00 %
01.12.2022 14:26 5,8 C 5,6 C 3,9 C 94 % 1026,6 hPa 0,0 l/m 0 min 0 min 47 W/m 9,7 km/h (2 Bft) 100,00 %
01.12.2022 14:28 5,8 C 5,6 C 3,9 C 94 % 1026,6 hPa 0,0 l/m 0 min 0 min 45 W/m 6,4 km/h (2 Bft) 97,87 %
01.12.2022 14:30 5,8 C 5,6 C 3,9 C 94 % 1026,5 hPa 0,0 l/m 0 min 0 min 43 W/m 9,7 km/h (2 Bft) 100,00 %
01.12.2022 14:32 5,9 C 5,6 C 3,9 C 94 % 1026,6 hPa 0,0 l/m 0 min 0 min 40 W/m 6,4 km/h (2 Bft) 100,00 %
01.12.2022 14:34 5,9 C 6,1 C 3,9 C 94 % 1026,5 hPa 0,0 l/m 0 min 0 min 41 W/m 3,2 km/h (1 Bft) 97,87 %
01.12.2022 14:36 5,9 C 5,6 C 3,9 C 94 % 1026,5 hPa 0,0 l/m 0 min 0 min 43 W/m 12,9 km/h (3 Bft) 100,00 %
01.12.2022 14:38 5,9 C 5,6 C 3,9 C 94 % 1026,5 hPa 0,0 l/m 0 min 0 min 39 W/m 3,2 km/h (1 Bft) 97,87 %
01.12.2022 14:40 6,0 C 6,1 C 3,9 C 94 % 1026,5 hPa 0,0 l/m 0 min 0 min 34 W/m 12,9 km/h (3 Bft) 97,83 %
01.12.2022 14:42 6,0 C 6,1 C 3,9 C 94 % 1026,4 hPa 0,0 l/m 0 min 0 min 33 W/m 12,9 km/h (3 Bft) 100,00 %
01.12.2022 14:44 6,1 C 6,1 C 3,9 C 93 % 1026,4 hPa 0,0 l/m 0 min 0 min 35 W/m 12,9 km/h (3 Bft) 100,00 %
01.12.2022 14:46 6,1 C 6,1 C 3,9 C 93 % 1026,4 hPa 0,0 l/m 0 min 0 min 39 W/m 3,2 km/h (1 Bft) 95,74 %
01.12.2022 14:48 6,1 C 6,1 C 3,9 C 93 % 1026,4 hPa 0,0 l/m 0 min 0 min 38 W/m 3,2 km/h (1 Bft) 100,00 %
01.12.2022 14:50 6,1 C 6,1 C 3,9 C 93 % 1026,4 hPa 0,0 l/m 0 min 0 min 33 W/m 6,4 km/h (2 Bft) 97,87 %
01.12.2022 14:52 6,1 C 6,1 C 3,9 C 93 % 1026,4 hPa 0,0 l/m 0 min 0 min 31 W/m 3,2 km/h (1 Bft) 97,83 %
01.12.2022 14:54 6,2 C 6,1 C 3,9 C 93 % 1026,4 hPa 0,0 l/m 0 min 0 min 34 W/m 6,4 km/h (2 Bft) 97,87 %
01.12.2022 14:56 6,3 C 6,1 C 3,9 C 93 % 1026,4 hPa 0,0 l/m 0 min 0 min 34 W/m 9,7 km/h (2 Bft) 97,87 %
01.12.2022 14:58 6,3 C 6,1 C 3,9 C 93 % 1026,4 hPa 0,0 l/m 0 min 0 min 35 W/m 12,9 km/h (3 Bft) 95,74 %
01.12.2022 15:00 6,3 C 6,7 C 3,9 C 93 % 1026,4 hPa 0,0 l/m 0 min 0 min 40 W/m 6,4 km/h (2 Bft) 97,87 %
01.12.2022 15:02 6,4 C 6,7 C 3,9 C 93 % 1026,5 hPa 0,0 l/m 0 min 0 min 39 W/m 3,2 km/h (1 Bft) 95,74 %
01.12.2022 15:04 6,4 C 6,7 C 3,9 C 92 % 1026,5 hPa 0,0 l/m 0 min 0 min 35 W/m 6,4 km/h (2 Bft) 97,83 %
01.12.2022 15:06 6,4 C 6,1 C 3,9 C 92 % 1026,5 hPa 0,0 l/m 0 min 0 min 31 W/m 6,4 km/h (2 Bft) 98,31 %
01.12.2022 15:08 6,4 C 6,1 C 3,9 C 92 % 1026,5 hPa 0,0 l/m 0 min 0 min 28 W/m 3,2 km/h (1 Bft) 94,29 %
01.12.2022 15:10 6,5 C 6,1 C 3,9 C 92 % 1026,5 hPa 0,0 l/m 0 min 0 min 27 W/m 3,2 km/h (1 Bft) 97,87 %
01.12.2022 15:12 6,5 C 6,1 C 3,9 C 92 % 1026,5 hPa 0,0 l/m 0 min 0 min 28 W/m 6,4 km/h (2 Bft) 95,74 %
01.12.2022 15:14 6,5 C 6,1 C 3,9 C 92 % 1026,5 hPa 0,0 l/m 0 min 0 min 25 W/m 9,7 km/h (2 Bft) 97,87 %
01.12.2022 15:16 6,5 C 6,1 C 3,9 C 91 % 1026,5 hPa 0,0 l/m 0 min 0 min 28 W/m 6,4 km/h (2 Bft) 95,65 %
01.12.2022 15:18 6,5 C 6,1 C 3,9 C 91 % 1026,5 hPa 0,0 l/m 0 min 0 min 27 W/m 6,4 km/h (2 Bft) 97,87 %
01.12.2022 15:20 6,5 C 6,1 C 3,9 C 91 % 1026,5 hPa 0,0 l/m 0 min 0 min 28 W/m 6,4 km/h (2 Bft) 97,87 %
01.12.2022 15:22 6,5 C 6,1 C 3,9 C 91 % 1026,4 hPa 0,0 l/m 0 min 0 min 31 W/m 6,4 km/h (2 Bft) 95,74 %
01.12.2022 15:24 6,5 C 6,1 C 3,9 C 91 % 1026,4 hPa 0,0 l/m 0 min 0 min 31 W/m 6,4 km/h (2 Bft) 95,74 %
01.12.2022 15:26 6,5 C 6,1 C 3,9 C 91 % 1026,4 hPa 0,0 l/m 0 min 0 min 26 W/m 6,4 km/h (2 Bft) 95,74 %
01.12.2022 15:28 6,5 C 6,1 C 3,9 C 91 % 1026,4 hPa 0,0 l/m 0 min 0 min 24 W/m 6,4 km/h (2 Bft) 93,48 %
01.12.2022 15:30 6,5 C 6,1 C 3,9 C 91 % 1026,4 hPa 0,0 l/m 0 min 0 min 23 W/m 6,4 km/h (2 Bft) 93,62 %
01.12.2022 15:32 6,5 C 6,1 C 3,9 C 90 % 1026,4 hPa 0,0 l/m 0 min 0 min 23 W/m 16,1 km/h (3 Bft) 95,74 %
01.12.2022 15:34 6,5 C 6,1 C 3,3 C 90 % 1026,4 hPa 0,0 l/m 0 min 0 min 20 W/m 19,3 km/h (3 Bft) 95,74 %
01.12.2022 15:36 6,5 C 6,1 C 3,3 C 90 % 1026,5 hPa 0,0 l/m 0 min 0 min 18 W/m 6,4 km/h (2 Bft) 93,62 %
01.12.2022 15:38 6,4 C 6,1 C 3,3 C 90 % 1026,5 hPa 0,0 l/m 0 min 0 min 16 W/m 12,9 km/h (3 Bft) 95,74 %
01.12.2022 15:40 6,4 C 6,1 C 3,3 C 90 % 1026,5 hPa 0,0 l/m 0 min 0 min 16 W/m 6,4 km/h (2 Bft) 95,65 %
01.12.2022 15:42 6,4 C 6,1 C 3,3 C 90 % 1026,5 hPa 0,0 l/m 0 min 0 min 16 W/m 6,4 km/h (2 Bft) 95,74 %
01.12.2022 15:44 6,4 C 6,1 C 3,3 C 90 % 1026,5 hPa 0,0 l/m 0 min 0 min 20 W/m 9,7 km/h (2 Bft) 95,74 %
01.12.2022 15:46 6,4 C 6,1 C 3,3 C 90 % 1026,4 hPa 0,0 l/m 0 min 0 min 20 W/m 6,4 km/h (2 Bft) 93,62 %
01.12.2022 15:48 6,4 C 6,1 C 3,3 C 90 % 1026,4 hPa 0,0 l/m 0 min 0 min 22 W/m 9,7 km/h (2 Bft) 91,49 %
01.12.2022 15:50 6,4 C 6,1 C 3,3 C 90 % 1026,4 hPa 0,0 l/m 0 min 0 min 22 W/m 6,4 km/h (2 Bft) 95,74 %
01.12.2022 15:52 6,4 C 6,1 C 3,3 C 90 % 1026,4 hPa 0,0 l/m 0 min 0 min 18 W/m 3,2 km/h (1 Bft) 95,65 %
01.12.2022 15:54 6,4 C 6,1 C 3,3 C 90 % 1026,4 hPa 0,0 l/m 0 min 0 min 13 W/m 16,1 km/h (3 Bft) 95,74 %
01.12.2022 15:56 6,4 C 6,1 C 3,3 C 90 % 1026,5 hPa 0,0 l/m 0 min 0 min 12 W/m 6,4 km/h (2 Bft) 95,74 %
01.12.2022 15:58 6,4 C 6,1 C 3,3 C 90 % 1026,5 hPa 0,0 l/m 0 min 0 min 11 W/m 9,7 km/h (2 Bft) 95,74 %
01.12.2022 16:00 6,3 C 6,1 C 3,3 C 90 % 1026,5 hPa 0,0 l/m 0 min 0 min 10 W/m 9,7 km/h (2 Bft) 100,00 %
01.12.2022 16:02 6,3 C 6,1 C 3,3 C 90 % 1026,5 hPa 0,0 l/m 0 min 0 min 11 W/m 3,2 km/h (1 Bft) 97,87 %
01.12.2022 16:04 6,3 C 6,1 C 3,3 C 90 % 1026,5 hPa 0,0 l/m 0 min 0 min 10 W/m 3,2 km/h (1 Bft) 97,83 %
01.12.2022 16:06 6,3 C 6,1 C 3,3 C 90 % 1026,5 hPa 0,0 l/m 0 min 0 min 8 W/m 9,7 km/h (2 Bft) 96,61 %
01.12.2022 16:08 6,3 C 6,1 C 3,3 C 90 % 1026,5 hPa 0,0 l/m 0 min 0 min 7 W/m 3,2 km/h (1 Bft) 97,14 %
01.12.2022 16:10 6,3 C 6,1 C 3,3 C 90 % 1026,4 hPa 0,0 l/m 0 min 0 min 6 W/m 3,2 km/h (1 Bft) 97,87 %
01.12.2022 16:12 6,3 C 6,1 C 3,3 C 90 % 1026,4 hPa 0,0 l/m 0 min 0 min 5 W/m 3,2 km/h (1 Bft) 97,87 %
01.12.2022 16:14 6,3 C 6,1 C 3,3 C 90 % 1026,4 hPa 0,0 l/m 0 min 0 min 5 W/m 6,4 km/h (2 Bft) 95,65 %
01.12.2022 16:16 6,3 C 5,6 C 3,3 C 90 % 1026,4 hPa 0,0 l/m 0 min 0 min 2 W/m 12,9 km/h (3 Bft) 97,87 %
01.12.2022 16:18 6,3 C 5,6 C 3,3 C 90 % 1026,4 hPa 0,0 l/m 0 min 0 min 0 W/m 3,2 km/h (1 Bft) 97,87 %
01.12.2022 16:20 6,3 C 5,6 C 3,3 C 90 % 1026,4 hPa 0,0 l/m 0 min 0 min 0 W/m 3,2 km/h (1 Bft) 97,87 %
01.12.2022 16:22 6,2 C 5,6 C 3,3 C 90 % 1026,4 hPa 0,0 l/m 0 min 0 min 0 W/m 9,7 km/h (2 Bft) 95,74 %
01.12.2022 16:24 6,2 C 5,6 C 3,3 C 90 % 1026,4 hPa 0,0 l/m 0 min 0 min 0 W/m 9,7 km/h (2 Bft) 97,87 %
01.12.2022 16:26 6,2 C 5,6 C 3,3 C 90 % 1026,4 hPa 0,0 l/m 0 min 0 min 0 W/m 3,2 km/h (1 Bft) 95,65 %
01.12.2022 16:28 6,2 C 5,6 C 3,3 C 90 % 1026,4 hPa 0,0 l/m 0 min 0 min 0 W/m 3,2 km/h (1 Bft) 97,87 %
01.12.2022 16:30 6,2 C 5,6 C 3,3 C 90 % 1026,4 hPa 0,0 l/m 0 min 0 min 0 W/m 0,0 km/h (0 Bft) 97,87 %
01.12.2022 16:32 6,2 C 5,6 C 3,3 C 90 % 1026,4 hPa 0,0 l/m 0 min 0 min 0 W/m 0,0 km/h (0 Bft) 100,00 %
01.12.2022 16:34 6,2 C 5,6 C 3,3 C 90 % 1026,5 hPa 0,0 l/m 0 min 0 min 0 W/m 0,0 km/h (0 Bft) 100,00 %
01.12.2022 16:36 6,2 C 5,6 C 3,3 C 90 % 1026,4 hPa 0,0 l/m 0 min 0 min 0 W/m 6,4 km/h (2 Bft) 100,00 %
01.12.2022 16:38 6,2 C 5,6 C 3,3 C 90 % 1026,5 hPa 0,0 l/m 0 min 0 min 0 W/m 9,7 km/h (2 Bft) 97,87 %
01.12.2022 16:40 6,2 C 5,6 C 3,3 C 90 % 1026,4 hPa 0,0 l/m 0 min 0 min 0 W/m 6,4 km/h (2 Bft) 97,83 %
01.12.2022 16:42 6,1 C 5,6 C 2,8 C 90 % 1026,4 hPa 0,0 l/m 0 min 0 min 0 W/m 3,2 km/h (1 Bft) 100,00 %
01.12.2022 16:44 6,1 C 5,6 C 2,8 C 90 % 1026,4 hPa 0,0 l/m 0 min 0 min 0 W/m 12,9 km/h (3 Bft) 100,00 %
01.12.2022 16:46 6,1 C 5,6 C 2,8 C 90 % 1026,4 hPa 0,0 l/m 0 min 0 min 0 W/m 6,4 km/h (2 Bft) 100,00 %
01.12.2022 16:48 6,1 C 5,6 C 2,8 C 91 % 1026,4 hPa 0,0 l/m 0 min 0 min 0 W/m 6,4 km/h (2 Bft) 100,00 %
01.12.2022 16:50 6,1 C 5,6 C 2,8 C 91 % 1026,5 hPa 0,0 l/m 0 min 0 min 0 W/m 6,4 km/h (2 Bft) 97,83 %
01.12.2022 16:52 6,1 C 5,6 C 2,8 C 91 % 1026,5 hPa 0,0 l/m 0 min 0 min 0 W/m 9,7 km/h (2 Bft) 97,87 %
01.12.2022 16:54 6,0 C 5,6 C 2,8 C 91 % 1026,5 hPa 0,0 l/m 0 min 0 min 0 W/m 12,9 km/h (3 Bft) 100,00 %
01.12.2022 16:56 6,0 C 5,6 C 2,8 C 91 % 1026,5 hPa 0,0 l/m 0 min 0 min 0 W/m 12,9 km/h (3 Bft) 100,00 %
01.12.2022 16:58 6,0 C 5,6 C 2,8 C 91 % 1026,5 hPa 0,0 l/m 0 min 0 min 0 W/m 3,2 km/h (1 Bft) 100,00 %
01.12.2022 17:00 5,9 C 5,6 C 2,8 C 91 % 1026,6 hPa 0,0 l/m 0 min 0 min 0 W/m 6,4 km/h (2 Bft) 100,00 %
01.12.2022 17:02 5,9 C 5,6 C 2,8 C 91 % 1026,7 hPa 0,0 l/m 0 min 0 min 0 W/m 16,1 km/h (3 Bft) 100,00 %
01.12.2022 17:04 5,9 C 5,6 C 2,8 C 91 % 1026,7 hPa 0,0 l/m 0 min 0 min 0 W/m 6,4 km/h (2 Bft) 100,00 %
01.12.2022 17:06 5,9 C 5,6 C 2,8 C 91 % 1026,7 hPa 0,0 l/m 0 min 0 min 0 W/m 19,3 km/h (3 Bft) 100,00 %
01.12.2022 17:08 5,8 C 5,6 C 2,8 C 91 % 1026,7 hPa 0,0 l/m 0 min 0 min 0 W/m 6,4 km/h (2 Bft) 100,00 %
01.12.2022 17:10 5,8 C 5,0 C 2,8 C 91 % 1026,6 hPa 0,0 l/m 0 min 0 min 0 W/m 9,7 km/h (2 Bft) 100,00 %
01.12.2022 17:12 5,8 C 5,0 C 2,8 C 91 % 1026,7 hPa 0,0 l/m 0 min 0 min 0 W/m 12,9 km/h (3 Bft) 97,87 %
01.12.2022 17:14 5,8 C 5,0 C 2,8 C 91 % 1026,7 hPa 0,0 l/m 0 min 0 min 0 W/m 3,2 km/h (1 Bft) 95,65 %
01.12.2022 17:16 5,8 C 5,0 C 2,8 C 91 % 1026,6 hPa 0,0 l/m 0 min 0 min 0 W/m 6,4 km/h (2 Bft) 97,87 %
01.12.2022 17:18 5,8 C 5,0 C 2,8 C 91 % 1026,5 hPa 0,0 l/m 0 min 0 min 0 W/m 6,4 km/h (2 Bft) 97,87 %
01.12.2022 17:20 5,8 C 5,0 C 2,8 C 91 % 1026,5 hPa 0,0 l/m 0 min 0 min 0 W/m 6,4 km/h (2 Bft) 97,87 %
01.12.2022 17:22 5,8 C 5,0 C 2,8 C 91 % 1026,6 hPa 0,0 l/m 0 min 0 min 0 W/m 3,2 km/h (1 Bft) 97,87 %
01.12.2022 17:24 5,7 C 5,0 C 2,8 C 91 % 1026,7 hPa 0,0 l/m 0 min 0 min 0 W/m 3,2 km/h (1 Bft) 97,87 %
01.12.2022 17:26 5,8 C 5,0 C 2,8 C 92 % 1026,6 hPa 0,0 l/m 0 min 0 min 0 W/m 3,2 km/h (1 Bft) 43,24 %
01.12.2022 17:28 5,7 C 5,0 C 2,8 C 92 % 1026,7 hPa 0,0 l/m 0 min 0 min 0 W/m 3,2 km/h (1 Bft) 97,87 %
01.12.2022 17:30 5,7 C 5,0 C 2,8 C 92 % 1026,6 hPa 0,0 l/m 0 min 0 min 0 W/m 6,4 km/h (2 Bft) 95,74 %
01.12.2022 17:32 5,7 C 5,0 C 2,8 C 91 % 1026,6 hPa 0,0 l/m 0 min 0 min 0 W/m 6,4 km/h (2 Bft) 95,74 %
01.12.2022 17:34 5,7 C 5,0 C 2,8 C 91 % 1026,5 hPa 0,0 l/m 0 min 0 min 0 W/m 9,7 km/h (2 Bft) 95,74 %
01.12.2022 17:36 5,7 C 5,0 C 2,8 C 92 % 1026,5 hPa 0,0 l/m 0 min 0 min 0 W/m 6,4 km/h (2 Bft) 97,87 %
01.12.2022 17:38 5,7 C 5,0 C 2,8 C 92 % 1026,5 hPa 0,0 l/m 0 min 0 min 0 W/m 9,7 km/h (2 Bft) 97,83 %
01.12.2022 17:40 5,7 C 5,0 C 2,8 C 92 % 1026,5 hPa 0,0 l/m 0 min 0 min 0 W/m 3,2 km/h (1 Bft) 97,87 %
01.12.2022 17:42 5,7 C 5,0 C 2,8 C 92 % 1026,4 hPa 0,0 l/m 0 min 0 min 0 W/m 3,2 km/h (1 Bft) 95,74 %
01.12.2022 17:44 5,7 C 5,0 C 2,8 C 92 % 1026,4 hPa 0,0 l/m 0 min 0 min 0 W/m 3,2 km/h (1 Bft) 97,87 %
01.12.2022 17:46 5,7 C 5,0 C 2,8 C 92 % 1026,4 hPa 0,0 l/m 0 min 0 min 0 W/m 12,9 km/h (3 Bft) 100,00 %
01.12.2022 17:48 5,6 C 5,0 C 2,8 C 92 % 1026,4 hPa 0,0 l/m 0 min 0 min 0 W/m 9,7 km/h (2 Bft) 97,87 %
01.12.2022 17:50 5,6 C 5,0 C 2,8 C 92 % 1026,4 hPa 0,0 l/m 0 min 0 min 0 W/m 3,2 km/h (1 Bft) 100,00 %
01.12.2022 17:52 5,6 C 5,0 C 2,8 C 92 % 1026,4 hPa 0,0 l/m 0 min 0 min 0 W/m 0,0 km/h (0 Bft) 97,87 %
01.12.2022 17:54 5,6 C 5,0 C 2,8 C 92 % 1026,4 hPa 0,0 l/m 0 min 0 min 0 W/m 6,4 km/h (2 Bft) 100,00 %
01.12.2022 17:56 5,6 C 5,0 C 2,8 C 92 % 1026,4 hPa 0,0 l/m 0 min 0 min 0 W/m 12,9 km/h (3 Bft) 100,00 %
01.12.2022 17:58 5,6 C 5,0 C 2,8 C 92 % 1026,5 hPa 0,0 l/m 0 min 0 min 0 W/m 12,9 km/h (3 Bft) 100,00 %
01.12.2022 18:00 5,6 C 5,0 C 2,8 C 92 % 1026,5 hPa 0,0 l/m 0 min 0 min 0 W/m 12,9 km/h (3 Bft) 100,00 %
01.12.2022 18:02 5,6 C 5,0 C 2,8 C 92 % 1026,5 hPa 0,0 l/m 0 min 0 min 0 W/m 3,2 km/h (1 Bft) 100,00 %
01.12.2022 18:04 5,6 C 5,0 C 2,8 C 92 % 1026,5 hPa 0,0 l/m 0 min 0 min 0 W/m 6,4 km/h (2 Bft) 97,87 %
01.12.2022 18:08 5,6 C 5,0 C 2,8 C 92 % 1026,5 hPa 0,0 l/m 0 min 0 min 0 W/m 3,2 km/h (1 Bft) 97,92 %
01.12.2022 18:10 5,6 C 5,0 C 2,8 C 92 % 1026,5 hPa 0,0 l/m 0 min 0 min 0 W/m 9,7 km/h (2 Bft) 97,87 %
01.12.2022 18:12 5,6 C 5,0 C 2,8 C 92 % 1026,5 hPa 0,0 l/m 0 min 0 min 0 W/m 3,2 km/h (1 Bft) 97,83 %
01.12.2022 18:14 5,6 C 5,0 C 2,8 C 92 % 1026,5 hPa 0,0 l/m 0 min 0 min 0 W/m 3,2 km/h (1 Bft) 93,62 %
01.12.2022 18:16 5,6 C 5,0 C 2,8 C 92 % 1026,6 hPa 0,0 l/m 0 min 0 min 0 W/m 6,4 km/h (2 Bft) 95,74 %
01.12.2022 18:18 5,6 C 5,0 C 2,8 C 92 % 1026,6 hPa 0,0 l/m 0 min 0 min 0 W/m 9,7 km/h (2 Bft) 93,62 %
01.12.2022 18:20 5,5 C 5,0 C 2,8 C 92 % 1026,6 hPa 0,0 l/m 0 min 0 min 0 W/m 3,2 km/h (1 Bft) 93,62 %
01.12.2022 18:22 5,6 C 5,0 C 2,8 C 92 % 1026,6 hPa 0,0 l/m 0 min 0 min 0 W/m 0,0 km/h (0 Bft) 95,74 %
01.12.2022 18:24 5,6 C 5,0 C 2,8 C 92 % 1026,7 hPa 0,0 l/m 0 min 0 min 0 W/m 0,0 km/h (0 Bft) 95,65 %
01.12.2022 18:26 5,5 C 5,0 C 2,8 C 92 % 1026,7 hPa 0,0 l/m 0 min 0 min 0 W/m 3,2 km/h (1 Bft) 95,74 %
01.12.2022 18:28 5,5 C 5,0 C 2,8 C 92 % 1026,7 hPa 0,0 l/m 0 min 0 min 0 W/m 9,7 km/h (2 Bft) 95,74 %
01.12.2022 18:30 5,5 C 5,0 C 2,8 C 92 % 1026,7 hPa 0,0 l/m 0 min 0 min 0 W/m 12,9 km/h (3 Bft) 95,74 %
01.12.2022 18:32 5,4 C 5,0 C 2,8 C 92 % 1026,8 hPa 0,0 l/m 0 min 0 min 0 W/m 9,7 km/h (2 Bft) 95,74 %
01.12.2022 18:34 5,4 C 5,0 C 2,8 C 92 % 1026,8 hPa 0,0 l/m 0 min 0 min 0 W/m 6,4 km/h (2 Bft) 95,74 %
01.12.2022 18:36 5,4 C 5,0 C 2,8 C 92 % 1026,8 hPa 0,0 l/m 0 min 0 min 0 W/m 6,4 km/h (2 Bft) 95,65 %
01.12.2022 18:38 5,4 C 5,0 C 2,8 C 92 % 1026,8 hPa 0,0 l/m 0 min 0 min 0 W/m 3,2 km/h (1 Bft) 93,62 %
01.12.2022 18:40 5,4 C 5,0 C 2,8 C 92 % 1026,8 hPa 0,0 l/m 0 min 0 min 0 W/m 6,4 km/h (2 Bft) 95,74 %
01.12.2022 18:42 5,4 C 5,0 C 2,8 C 92 % 1026,8 hPa 0,0 l/m 0 min 0 min 0 W/m 6,4 km/h (2 Bft) 93,62 %
01.12.2022 18:44 5,4 C 5,0 C 2,8 C 92 % 1026,8 hPa 0,0 l/m 0 min 0 min 0 W/m 12,9 km/h (3 Bft) 95,74 %
01.12.2022 18:46 5,4 C 5,0 C 2,8 C 92 % 1026,8 hPa 0,0 l/m 0 min 0 min 0 W/m 12,9 km/h (3 Bft) 95,74 %
01.12.2022 18:48 5,4 C 5,0 C 2,8 C 92 % 1026,8 hPa 0,0 l/m 0 min 0 min 0 W/m 3,2 km/h (1 Bft) 91,30 %
01.12.2022 18:50 5,4 C 5,0 C 2,8 C 92 % 1026,8 hPa 0,0 l/m 0 min 0 min 0 W/m 6,4 km/h (2 Bft) 95,74 %
01.12.2022 18:52 5,4 C 5,0 C 2,8 C 92 % 1026,8 hPa 0,0 l/m 0 min 0 min 0 W/m 3,2 km/h (1 Bft) 97,87 %
01.12.2022 18:54 5,4 C 5,0 C 2,8 C 92 % 1026,8 hPa 0,0 l/m 0 min 0 min 0 W/m 6,4 km/h (2 Bft) 93,62 %
01.12.2022 18:56 5,4 C 5,0 C 2,2 C 92 % 1026,8 hPa 0,0 l/m 0 min 0 min 0 W/m 9,7 km/h (2 Bft) 91,49 %
01.12.2022 18:58 5,3 C 5,0 C 2,8 C 92 % 1026,9 hPa 0,0 l/m 0 min 0 min 0 W/m 9,7 km/h (2 Bft) 95,74 %
01.12.2022 19:00 5,3 C 5,0 C 2,8 C 92 % 1026,8 hPa 0,0 l/m 0 min 0 min 0 W/m 16,1 km/h (3 Bft) 95,65 %
01.12.2022 19:02 5,3 C 5,0 C 2,2 C 92 % 1026,8 hPa 0,0 l/m 0 min 0 min 0 W/m 12,9 km/h (3 Bft) 97,87 %
01.12.2022 19:04 5,3 C 5,0 C 2,2 C 92 % 1026,8 hPa 0,0 l/m 0 min 0 min 0 W/m 6,4 km/h (2 Bft) 95,74 %
01.12.2022 19:06 5,3 C 5,0 C 2,2 C 92 % 1026,8 hPa 0,0 l/m 0 min 0 min 0 W/m 6,4 km/h (2 Bft) 95,74 %
01.12.2022 19:08 5,3 C 5,0 C 2,2 C 92 % 1026,9 hPa 0,0 l/m 0 min 0 min 0 W/m 6,4 km/h (2 Bft) 97,87 %
01.12.2022 19:10 5,3 C 5,0 C 2,2 C 92 % 1026,8 hPa 0,0 l/m 0 min 0 min 0 W/m 3,2 km/h (1 Bft) 97,87 %
01.12.2022 19:12 5,3 C 5,0 C 2,8 C 91 % 1026,9 hPa 0,0 l/m 0 min 0 min 0 W/m 12,9 km/h (3 Bft) 97,83 %
01.12.2022 19:14 5,3 C 5,0 C 2,8 C 92 % 1026,9 hPa 0,0 l/m 0 min 0 min 0 W/m 9,7 km/h (2 Bft) 91,49 %
01.12.2022 19:16 5,4 C 5,0 C 2,2 C 91 % 1026,9 hPa 0,0 l/m 0 min 0 min 0 W/m 6,4 km/h (2 Bft) 97,87 %
01.12.2022 19:18 5,3 C 5,0 C 2,2 C 91 % 1026,9 hPa 0,0 l/m 0 min 0 min 0 W/m 12,9 km/h (3 Bft) 97,87 %
01.12.2022 19:20 5,3 C 5,0 C 2,2 C 92 % 1026,9 hPa 0,0 l/m 0 min 0 min 0 W/m 9,7 km/h (2 Bft) 97,87 %
01.12.2022 19:22 5,4 C 5,0 C 2,2 C 91 % 1026,9 hPa 0,0 l/m 0 min 0 min 0 W/m 6,4 km/h (2 Bft) 97,87 %
01.12.2022 19:24 5,4 C 5,0 C 2,2 C 91 % 1026,9 hPa 0,0 l/m 0 min 0 min 0 W/m 3,2 km/h (1 Bft) 97,83 %
01.12.2022 19:26 5,4 C 5,0 C 2,2 C 91 % 1026,9 hPa 0,0 l/m 0 min 0 min 0 W/m 6,4 km/h (2 Bft) 97,87 %
01.12.2022 19:28 5,4 C 5,0 C 2,2 C 92 % 1026,9 hPa 0,0 l/m 0 min 0 min 0 W/m 6,4 km/h (2 Bft) 95,74 %
01.12.2022 19:30 5,3 C 5,0 C 2,2 C 92 % 1026,9 hPa 0,0 l/m 0 min 0 min 0 W/m 3,2 km/h (1 Bft) 97,87 %
01.12.2022 19:32 5,3 C 5,0 C 2,2 C 92 % 1026,8 hPa 0,0 l/m 0 min 0 min 0 W/m 6,4 km/h (2 Bft) 100,00 %
01.12.2022 19:34 5,3 C 5,0 C 2,2 C 92 % 1026,8 hPa 0,0 l/m 0 min 0 min 0 W/m 3,2 km/h (1 Bft) 97,83 %
01.12.2022 19:36 5,3 C 5,0 C 2,2 C 92 % 1026,8 hPa 0,0 l/m 0 min 0 min 0 W/m 9,7 km/h (2 Bft) 100,00 %
01.12.2022 19:38 5,3 C 5,0 C 2,2 C 91 % 1026,8 hPa 0,0 l/m 0 min 0 min 0 W/m 12,9 km/h (3 Bft) 100,00 %
01.12.2022 19:40 5,3 C 5,0 C 2,2 C 91 % 1026,8 hPa 0,0 l/m 0 min 0 min 0 W/m 16,1 km/h (3 Bft) 100,00 %
01.12.2022 19:42 5,3 C 5,0 C 2,2 C 91 % 1026,8 hPa 0,0 l/m 0 min 0 min 0 W/m 9,7 km/h (2 Bft) 100,00 %
01.12.2022 19:44 5,3 C 5,0 C 2,2 C 91 % 1026,8 hPa 0,0 l/m 0 min 0 min 0 W/m 9,7 km/h (2 Bft) 100,00 %
01.12.2022 19:46 5,3 C 5,0 C 2,2 C 91 % 1026,8 hPa 0,0 l/m 0 min 0 min 0 W/m 6,4 km/h (2 Bft) 100,00 %
01.12.2022 19:48 5,3 C 5,0 C 2,2 C 91 % 1026,8 hPa 0,0 l/m 0 min 0 min 0 W/m 6,4 km/h (2 Bft) 100,00 %
01.12.2022 19:50 5,3 C 5,0 C 2,2 C 91 % 1026,8 hPa 0,0 l/m 0 min 0 min 0 W/m 6,4 km/h (2 Bft) 100,00 %
01.12.2022 19:52 5,3 C 5,0 C 2,2 C 91 % 1026,8 hPa 0,0 l/m 0 min 0 min 0 W/m 3,2 km/h (1 Bft) 97,87 %
01.12.2022 19:54 5,3 C 5,0 C 2,2 C 91 % 1026,7 hPa 0,0 l/m 0 min 0 min 0 W/m 6,4 km/h (2 Bft) 100,00 %
01.12.2022 19:56 5,3 C 5,0 C 2,2 C 91 % 1026,7 hPa 0,0 l/m 0 min 0 min 0 W/m 3,2 km/h (1 Bft) 100,00 %
01.12.2022 19:58 5,3 C 5,0 C 2,2 C 91 % 1026,7 hPa 0,0 l/m 0 min 0 min 0 W/m 3,2 km/h (1 Bft) 97,83 %
01.12.2022 20:00 5,3 C 5,0 C 2,2 C 91 % 1026,7 hPa 0,0 l/m 0 min 0 min 0 W/m 16,1 km/h (3 Bft) 97,87 %
01.12.2022 20:02 5,3 C 5,0 C 2,2 C 91 % 1026,7 hPa 0,0 l/m 0 min 0 min 0 W/m 6,4 km/h (2 Bft) 100,00 %
01.12.2022 20:04 5,3 C 5,0 C 2,2 C 91 % 1026,7 hPa 0,0 l/m 0 min 0 min 0 W/m 6,4 km/h (2 Bft) 100,00 %
01.12.2022 20:06 5,3 C 5,0 C 2,2 C 91 % 1026,6 hPa 0,0 l/m 0 min 0 min 0 W/m 9,7 km/h (2 Bft) 100,00 %
01.12.2022 20:08 5,3 C 4,4 C 2,2 C 91 % 1026,6 hPa 0,0 l/m 0 min 0 min 0 W/m 6,4 km/h (2 Bft) 100,00 %
01.12.2022 20:10 5,2 C 5,0 C 2,2 C 91 % 1026,6 hPa 0,0 l/m 0 min 0 min 0 W/m 6,4 km/h (2 Bft) 100,00 %
01.12.2022 20:12 5,2 C 4,4 C 2,2 C 91 % 1026,5 hPa 0,0 l/m 0 min 0 min 0 W/m 9,7 km/h (2 Bft) 97,87 %
01.12.2022 20:14 5,2 C 4,4 C 2,2 C 91 % 1026,6 hPa 0,0 l/m 0 min 0 min 0 W/m 16,1 km/h (3 Bft) 100,00 %
01.12.2022 20:16 5,2 C 4,4 C 2,2 C 91 % 1026,6 hPa 0,0 l/m 0 min 0 min 0 W/m 16,1 km/h (3 Bft) 100,00 %
01.12.2022 20:18 5,2 C 5,0 C 2,2 C 91 % 1026,6 hPa 0,0 l/m 0 min 0 min 0 W/m 3,2 km/h (1 Bft) 97,87 %
01.12.2022 20:20 5,2 C 4,4 C 2,2 C 91 % 1026,5 hPa 0,0 l/m 0 min 0 min 0 W/m 16,1 km/h (3 Bft) 100,00 %
01.12.2022 20:22 5,2 C 4,4 C 2,2 C 91 % 1026,5 hPa 0,0 l/m 0 min 0 min 0 W/m 6,4 km/h (2 Bft) 100,00 %
01.12.2022 20:24 5,2 C 4,4 C 2,2 C 91 % 1026,5 hPa 0,0 l/m 0 min 0 min 0 W/m 6,4 km/h (2 Bft) 97,87 %
01.12.2022 20:26 5,2 C 4,4 C 2,2 C 91 % 1026,5 hPa 0,0 l/m 0 min 0 min 0 W/m 16,1 km/h (3 Bft) 100,00 %
01.12.2022 20:28 5,1 C 4,4 C 2,2 C 91 % 1026,5 hPa 0,0 l/m 0 min 0 min 0 W/m 9,7 km/h (2 Bft) 100,00 %
01.12.2022 20:30 5,1 C 4,4 C 2,2 C 91 % 1026,5 hPa 0,0 l/m 0 min 0 min 0 W/m 6,4 km/h (2 Bft) 95,74 %
01.12.2022 20:32 5,1 C 4,4 C 2,2 C 91 % 1026,5 hPa 0,0 l/m 0 min 0 min 0 W/m 6,4 km/h (2 Bft) 97,87 %
01.12.2022 20:34 5,1 C 4,4 C 2,2 C 91 % 1026,5 hPa 0,0 l/m 0 min 0 min 0 W/m 3,2 km/h (1 Bft) 100,00 %
01.12.2022 20:36 5,1 C 4,4 C 2,2 C 91 % 1026,5 hPa 0,0 l/m 0 min 0 min 0 W/m 6,4 km/h (2 Bft) 95,74 %
01.12.2022 20:38 5,1 C 4,4 C 2,2 C 91 % 1026,5 hPa 0,0 l/m 0 min 0 min 0 W/m 6,4 km/h (2 Bft) 100,00 %
01.12.2022 20:40 5,1 C 4,4 C 2,2 C 91 % 1026,5 hPa 0,0 l/m 0 min 0 min 0 W/m 9,7 km/h (2 Bft) 93,62 %
01.12.2022 20:42 5,1 C 4,4 C 2,2 C 91 % 1026,5 hPa 0,0 l/m 0 min 0 min 0 W/m 12,9 km/h (3 Bft) 97,87 %
01.12.2022 20:44 5,1 C 4,4 C 2,2 C 91 % 1026,6 hPa 0,0 l/m 0 min 0 min 0 W/m 6,4 km/h (2 Bft) 97,87 %
01.12.2022 20:46 5,1 C 4,4 C 2,2 C 91 % 1026,5 hPa 0,0 l/m 0 min 0 min 0 W/m 9,7 km/h (2 Bft) 97,83 %
01.12.2022 20:48 5,1 C 4,4 C 2,2 C 91 % 1026,5 hPa 0,0 l/m 0 min 0 min 0 W/m 12,9 km/h (3 Bft) 95,74 %
01.12.2022 20:50 5,0 C 4,4 C 2,2 C 91 % 1026,6 hPa 0,0 l/m 0 min 0 min 0 W/m 6,4 km/h (2 Bft) 95,74 %
01.12.2022 20:52 5,0 C 4,4 C 2,2 C 91 % 1026,6 hPa 0,0 l/m 0 min 0 min 0 W/m 6,4 km/h (2 Bft) 93,62 %
01.12.2022 20:54 5,0 C 4,4 C 2,2 C 91 % 1026,5 hPa 0,0 l/m 0 min 0 min 0 W/m 9,7 km/h (2 Bft) 95,74 %
01.12.2022 20:56 5,0 C 4,4 C 2,2 C 91 % 1026,5 hPa 0,0 l/m 0 min 0 min 0 W/m 12,9 km/h (3 Bft) 95,74 %
01.12.2022 20:58 4,9 C 4,4 C 2,2 C 91 % 1026,5 hPa 0,0 l/m 0 min 0 min 0 W/m 16,1 km/h (3 Bft) 95,65 %
01.12.2022 21:00 4,9 C 4,4 C 2,2 C 91 % 1026,6 hPa 0,0 l/m 0 min 0 min 0 W/m 12,9 km/h (3 Bft) 93,62 %
01.12.2022 21:02 4,9 C 4,4 C 2,2 C 91 % 1026,6 hPa 0,0 l/m 0 min 0 min 0 W/m 3,2 km/h (1 Bft) 93,62 %
01.12.2022 21:04 4,9 C 4,4 C 2,2 C 91 % 1026,6 hPa 0,0 l/m 0 min 0 min 0 W/m 3,2 km/h (1 Bft) 93,62 %
01.12.2022 21:06 4,9 C 4,4 C 1,7 C 91 % 1026,5 hPa 0,0 l/m 0 min 0 min 0 W/m 6,4 km/h (2 Bft) 91,49 %
01.12.2022 21:08 4,9 C 4,4 C 1,7 C 91 % 1026,5 hPa 0,0 l/m 0 min 0 min 0 W/m 9,7 km/h (2 Bft) 95,74 %
01.12.2022 21:10 4,8 C 4,4 C 1,7 C 91 % 1026,6 hPa 0,0 l/m 0 min 0 min 0 W/m 9,7 km/h (2 Bft) 95,65 %
01.12.2022 21:12 4,8 C 3,9 C 1,7 C 91 % 1026,5 hPa 0,0 l/m 0 min 0 min 0 W/m 3,2 km/h (1 Bft) 89,36 %
01.12.2022 21:14 4,7 C 3,9 C 1,7 C 90 % 1026,5 hPa 0,0 l/m 0 min 0 min 0 W/m 3,2 km/h (1 Bft) 91,49 %
01.12.2022 21:16 4,7 C 3,9 C 1,7 C 90 % 1026,5 hPa 0,0 l/m 0 min 0 min 0 W/m 6,4 km/h (2 Bft) 93,62 %
01.12.2022 21:18 4,6 C 3,9 C 1,7 C 90 % 1026,6 hPa 0,0 l/m 0 min 0 min 0 W/m 12,9 km/h (3 Bft) 91,49 %
01.12.2022 21:20 4,6 C 3,9 C 1,7 C 90 % 1026,6 hPa 0,0 l/m 0 min 0 min 0 W/m 6,4 km/h (2 Bft) 93,62 %
01.12.2022 21:22 4,6 C 3,9 C 1,7 C 90 % 1026,6 hPa 0,0 l/m 0 min 0 min 0 W/m 9,7 km/h (2 Bft) 95,65 %
01.12.2022 21:24 4,5 C 3,9 C 1,7 C 90 % 1026,6 hPa 0,0 l/m 0 min 0 min 0 W/m 6,4 km/h (2 Bft) 93,62 %
01.12.2022 21:26 4,4 C 3,9 C 1,1 C 90 % 1026,6 hPa 0,0 l/m 0 min 0 min 0 W/m 6,4 km/h (2 Bft) 97,87 %
01.12.2022 21:28 4,4 C 3,9 C 1,1 C 90 % 1026,6 hPa 0,0 l/m 0 min 0 min 0 W/m 6,4 km/h (2 Bft) 97,87 %
01.12.2022 21:30 4,4 C 3,9 C 1,1 C 90 % 1026,6 hPa 0,0 l/m 0 min 0 min 0 W/m 3,2 km/h (1 Bft) 97,87 %
01.12.2022 21:32 4,4 C 3,9 C 1,7 C 90 % 1026,7 hPa 0,0 l/m 0 min 0 min 0 W/m 12,9 km/h (3 Bft) 95,74 %
01.12.2022 21:34 4,3 C 3,9 C 1,7 C 90 % 1026,7 hPa 0,0 l/m 0 min 0 min 0 W/m 6,4 km/h (2 Bft) 95,74 %
01.12.2022 21:36 4,3 C 3,9 C 1,7 C 90 % 1026,7 hPa 0,0 l/m 0 min 0 min 0 W/m 6,4 km/h (2 Bft) 95,65 %
01.12.2022 21:38 4,3 C 3,9 C 1,7 C 90 % 1026,6 hPa 0,0 l/m 0 min 0 min 0 W/m 6,4 km/h (2 Bft) 95,74 %
01.12.2022 21:40 4,3 C 3,9 C 1,7 C 90 % 1026,7 hPa 0,0 l/m 0 min 0 min 0 W/m 12,9 km/h (3 Bft) 97,87 %
01.12.2022 21:42 4,3 C 3,9 C 1,7 C 90 % 1026,7 hPa 0,0 l/m 0 min 0 min 0 W/m 9,7 km/h (2 Bft) 97,87 %
01.12.2022 21:44 4,3 C 3,9 C 1,7 C 90 % 1026,7 hPa 0,0 l/m 0 min 0 min 0 W/m 9,7 km/h (2 Bft) 97,87 %
01.12.2022 21:46 4,3 C 3,9 C 1,7 C 90 % 1026,7 hPa 0,0 l/m 0 min 0 min 0 W/m 6,4 km/h (2 Bft) 97,87 %
01.12.2022 21:48 4,3 C 3,9 C 1,7 C 90 % 1026,7 hPa 0,0 l/m 0 min 0 min 0 W/m 9,7 km/h (2 Bft) 97,83 %
01.12.2022 21:50 4,3 C 3,9 C 1,7 C 91 % 1026,7 hPa 0,0 l/m 0 min 0 min 0 W/m 3,2 km/h (1 Bft) 95,74 %
01.12.2022 21:52 4,3 C 3,9 C 1,7 C 91 % 1026,7 hPa 0,0 l/m 0 min 0 min 0 W/m 12,9 km/h (3 Bft) 97,87 %
01.12.2022 21:54 4,3 C 3,9 C 1,7 C 90 % 1026,7 hPa 0,0 l/m 0 min 0 min 0 W/m 3,2 km/h (1 Bft) 97,87 %
01.12.2022 21:56 4,3 C 3,9 C 1,7 C 90 % 1026,7 hPa 0,0 l/m 0 min 0 min 0 W/m 3,2 km/h (1 Bft) 97,87 %
01.12.2022 21:58 4,3 C 3,9 C 1,7 C 91 % 1026,7 hPa 0,0 l/m 0 min 0 min 0 W/m 6,4 km/h (2 Bft) 97,83 %
01.12.2022 22:00 4,3 C 3,9 C 1,7 C 91 % 1026,7 hPa 0,0 l/m 0 min 0 min 0 W/m 12,9 km/h (3 Bft) 95,74 %
01.12.2022 22:02 4,3 C 3,9 C 1,7 C 91 % 1026,6 hPa 0,0 l/m 0 min 0 min 0 W/m 9,7 km/h (2 Bft) 97,87 %
01.12.2022 22:04 4,3 C 3,9 C 1,7 C 91 % 1026,7 hPa 0,0 l/m 0 min 0 min 0 W/m 6,4 km/h (2 Bft) 97,87 %
01.12.2022 22:06 4,3 C 3,9 C 1,7 C 91 % 1026,6 hPa 0,0 l/m 0 min 0 min 0 W/m 9,7 km/h (2 Bft) 95,74 %
01.12.2022 22:08 4,3 C 3,9 C 1,7 C 91 % 1026,6 hPa 0,0 l/m 0 min 0 min 0 W/m 6,4 km/h (2 Bft) 97,87 %
01.12.2022 22:10 4,3 C 3,9 C 1,7 C 91 % 1026,6 hPa 0,0 l/m 0 min 0 min 0 W/m 3,2 km/h (1 Bft) 97,83 %
01.12.2022 22:12 4,3 C 3,9 C 1,7 C 91 % 1026,5 hPa 0,0 l/m 0 min 0 min 0 W/m 9,7 km/h (2 Bft) 100,00 %
01.12.2022 22:14 4,3 C 3,9 C 1,7 C 91 % 1026,5 hPa 0,0 l/m 0 min 0 min 0 W/m 3,2 km/h (1 Bft) 97,87 %
01.12.2022 22:16 4,3 C 3,9 C 1,7 C 91 % 1026,6 hPa 0,0 l/m 0 min 0 min 0 W/m 3,2 km/h (1 Bft) 97,87 %
01.12.2022 22:18 4,3 C 3,9 C 1,7 C 91 % 1026,5 hPa 0,0 l/m 0 min 0 min 0 W/m 9,7 km/h (2 Bft) 97,87 %
01.12.2022 22:20 4,3 C 3,9 C 1,7 C 91 % 1026,5 hPa 0,0 l/m 0 min 0 min 0 W/m 3,2 km/h (1 Bft) 97,87 %
01.12.2022 22:22 4,4 C 3,9 C 1,7 C 91 % 1026,5 hPa 0,0 l/m 0 min 0 min 0 W/m 9,7 km/h (2 Bft) 100,00 %
01.12.2022 22:24 4,4 C 3,9 C 1,7 C 91 % 1026,6 hPa 0,0 l/m 0 min 0 min 0 W/m 9,7 km/h (2 Bft) 97,83 %
01.12.2022 22:26 4,4 C 3,9 C 1,7 C 91 % 1026,5 hPa 0,0 l/m 0 min 0 min 0 W/m 9,7 km/h (2 Bft) 97,87 %
01.12.2022 22:28 4,3 C 3,9 C 1,7 C 91 % 1026,5 hPa 0,0 l/m 0 min 0 min 0 W/m 3,2 km/h (1 Bft) 100,00 %
01.12.2022 22:30 4,3 C 3,9 C 1,7 C 91 % 1026,5 hPa 0,0 l/m 0 min 0 min 0 W/m 3,2 km/h (1 Bft) 100,00 %
01.12.2022 22:32 4,3 C 3,9 C 1,7 C 91 % 1026,5 hPa 0,0 l/m 0 min 0 min 0 W/m 3,2 km/h (1 Bft) 100,00 %
01.12.2022 22:34 4,3 C 3,9 C 1,7 C 91 % 1026,5 hPa 0,0 l/m 0 min 0 min 0 W/m 3,2 km/h (1 Bft) 97,83 %
01.12.2022 22:36 4,3 C 3,9 C 1,7 C 91 % 1026,5 hPa 0,0 l/m 0 min 0 min 0 W/m 6,4 km/h (2 Bft) 100,00 %
01.12.2022 22:38 4,3 C 3,9 C 1,7 C 91 % 1026,5 hPa 0,0 l/m 0 min 0 min 0 W/m 6,4 km/h (2 Bft) 100,00 %
01.12.2022 22:40 4,3 C 3,9 C 1,7 C 91 % 1026,5 hPa 0,0 l/m 0 min 0 min 0 W/m 3,2 km/h (1 Bft) 95,74 %
01.12.2022 22:42 4,3 C 3,9 C 1,7 C 91 % 1026,5 hPa 0,0 l/m 0 min 0 min 0 W/m 6,4 km/h (2 Bft) 95,74 %
01.12.2022 22:44 4,3 C 3,9 C 1,7 C 91 % 1026,4 hPa 0,0 l/m 0 min 0 min 0 W/m 3,2 km/h (1 Bft) 97,87 %
01.12.2022 22:46 4,3 C 3,9 C 1,7 C 91 % 1026,4 hPa 0,0 l/m 0 min 0 min 0 W/m 3,2 km/h (1 Bft) 95,65 %
01.12.2022 22:48 4,3 C 3,9 C 1,7 C 91 % 1026,4 hPa 0,0 l/m 0 min 0 min 0 W/m 6,4 km/h (2 Bft) 97,87 %
01.12.2022 22:50 4,3 C 3,9 C 1,7 C 91 % 1026,4 hPa 0,0 l/m 0 min 0 min 0 W/m 3,2 km/h (1 Bft) 100,00 %
01.12.2022 22:52 4,3 C 3,9 C 1,7 C 91 % 1026,4 hPa 0,0 l/m 0 min 0 min 0 W/m 3,2 km/h (1 Bft) 95,65 %
01.12.2022 22:54 4,3 C 3,9 C 1,1 C 91 % 1026,4 hPa 0,0 l/m 0 min 0 min 0 W/m 6,4 km/h (2 Bft) 98,31 %
01.12.2022 22:56 4,3 C 3,9 C 1,1 C 91 % 1026,4 hPa 0,0 l/m 0 min 0 min 0 W/m 12,9 km/h (3 Bft) 93,62 %
01.12.2022 22:58 4,2 C 3,9 C 1,1 C 91 % 1026,4 hPa 0,0 l/m 0 min 0 min 0 W/m 9,7 km/h (2 Bft) 95,74 %
01.12.2022 23:00 4,2 C 3,9 C 1,1 C 91 % 1026,3 hPa 0,0 l/m 0 min 0 min 0 W/m 9,7 km/h (2 Bft) 97,83 %
01.12.2022 23:02 4,2 C 3,9 C 1,1 C 91 % 1026,4 hPa 0,0 l/m 0 min 0 min 0 W/m 6,4 km/h (2 Bft) 97,87 %
01.12.2022 23:04 4,1 C 3,9 C 1,1 C 91 % 1026,3 hPa 0,0 l/m 0 min 0 min 0 W/m 9,7 km/h (2 Bft) 97,92 %
01.12.2022 23:06 4,1 C 3,9 C 1,1 C 91 % 1026,3 hPa 0,0 l/m 0 min 0 min 0 W/m 6,4 km/h (2 Bft) 97,87 %
01.12.2022 23:08 4,1 C 3,9 C 1,1 C 91 % 1026,3 hPa 0,0 l/m 0 min 0 min 0 W/m 16,1 km/h (3 Bft) 95,74 %
01.12.2022 23:10 4,1 C 3,9 C 1,1 C 90 % 1026,3 hPa 0,0 l/m 0 min 0 min 0 W/m 9,7 km/h (2 Bft) 100,00 %
01.12.2022 23:12 4,1 C 3,9 C 1,1 C 90 % 1026,2 hPa 0,0 l/m 0 min 0 min 0 W/m 19,3 km/h (3 Bft) 95,65 %
01.12.2022 23:14 4,1 C 3,9 C 1,1 C 90 % 1026,2 hPa 0,0 l/m 0 min 0 min 0 W/m 12,9 km/h (3 Bft) 97,87 %
01.12.2022 23:16 4,1 C 3,3 C 1,1 C 90 % 1026,2 hPa 0,0 l/m 0 min 0 min 0 W/m 9,7 km/h (2 Bft) 97,87 %
01.12.2022 23:18 4,0 C 3,3 C 1,1 C 90 % 1026,2 hPa 0,0 l/m 0 min 0 min 0 W/m 6,4 km/h (2 Bft) 95,74 %
01.12.2022 23:20 4,0 C 3,3 C 1,1 C 90 % 1026,2 hPa 0,0 l/m 0 min 0 min 0 W/m 9,7 km/h (2 Bft) 97,87 %
01.12.2022 23:22 4,0 C 3,3 C 1,1 C 90 % 1026,1 hPa 0,0 l/m 0 min 0 min 0 W/m 6,4 km/h (2 Bft) 95,74 %
01.12.2022 23:24 4,0 C 3,3 C 1,1 C 90 % 1026,1 hPa 0,0 l/m 0 min 0 min 0 W/m 3,2 km/h (1 Bft) 95,65 %
01.12.2022 23:26 4,0 C 3,3 C 1,1 C 90 % 1026,1 hPa 0,0 l/m 0 min 0 min 0 W/m 9,7 km/h (2 Bft) 97,87 %
01.12.2022 23:28 4,0 C 3,3 C 1,1 C 90 % 1026,1 hPa 0,0 l/m 0 min 0 min 0 W/m 6,4 km/h (2 Bft) 97,87 %
01.12.2022 23:30 4,0 C 3,3 C 1,1 C 90 % 1026,1 hPa 0,0 l/m 0 min 0 min 0 W/m 6,4 km/h (2 Bft) 97,87 %
01.12.2022 23:32 4,0 C 3,3 C 1,1 C 90 % 1026,1 hPa 0,0 l/m 0 min 0 min 0 W/m 3,2 km/h (1 Bft) 97,87 %
01.12.2022 23:34 4,0 C 3,3 C 1,1 C 90 % 1026,1 hPa 0,0 l/m 0 min 0 min 0 W/m 9,7 km/h (2 Bft) 97,87 %
01.12.2022 23:36 3,9 C 3,3 C 1,1 C 90 % 1026,1 hPa 0,0 l/m 0 min 0 min 0 W/m 9,7 km/h (2 Bft) 95,65 %
01.12.2022 23:38 3,9 C 3,3 C 1,1 C 90 % 1026,1 hPa 0,0 l/m 0 min 0 min 0 W/m 9,7 km/h (2 Bft) 97,87 %
01.12.2022 23:40 3,9 C 3,3 C 1,1 C 90 % 1026,1 hPa 0,0 l/m 0 min 0 min 0 W/m 6,4 km/h (2 Bft) 97,87 %
01.12.2022 23:42 3,9 C 3,3 C 1,1 C 90 % 1026,1 hPa 0,0 l/m 0 min 0 min 0 W/m 6,4 km/h (2 Bft) 97,87 %
01.12.2022 23:44 3,9 C 3,3 C 1,1 C 90 % 1026,1 hPa 0,0 l/m 0 min 0 min 0 W/m 6,4 km/h (2 Bft) 97,87 %
01.12.2022 23:46 3,9 C 3,3 C 1,1 C 90 % 1026,1 hPa 0,0 l/m 0 min 0 min 0 W/m 3,2 km/h (1 Bft) 97,87 %
01.12.2022 23:48 3,9 C 3,3 C 1,1 C 90 % 1026,1 hPa 0,0 l/m 0 min 0 min 0 W/m 3,2 km/h (1 Bft) 97,83 %
01.12.2022 23:50 3,9 C 3,3 C 1,1 C 90 % 1026,1 hPa 0,0 l/m 0 min 0 min 0 W/m 3,2 km/h (1 Bft) 97,87 %
01.12.2022 23:52 3,9 C 3,3 C 1,1 C 90 % 1026,2 hPa 0,0 l/m 0 min 0 min 0 W/m 3,2 km/h (1 Bft) 100,00 %
01.12.2022 23:54 3,9 C 3,3 C 1,1 C 90 % 1026,1 hPa 0,0 l/m 0 min 0 min 0 W/m 12,9 km/h (3 Bft) 100,00 %
01.12.2022 23:56 3,9 C 3,3 C 1,1 C 90 % 1026,1 hPa 0,0 l/m 0 min 0 min 0 W/m 9,7 km/h (2 Bft) 100,00 %
01.12.2022 23:58 3,9 C 3,3 C 1,1 C 90 % 1026,0 hPa 0,0 l/m 0 min 0 min 0 W/m 9,7 km/h (2 Bft) 100,00 %
_ Min-Zeit 23:36 23:16 21:26 15:32 23:58 - - - - 00:08 17:26
Minimum _ 3,9 C 3,3 C 1,1 C 90 % 1026,0 hPa - - - - 0,0 km/h (0 Bft) 43,24 %
_ Max-Zeit 15:10 15:00 00:00 02:46 10:56 00:00 00:00 00:00 14:06 11:20 00:10
Maximum _ 6,5 C 6,7 C 3,9 C 97 % 1027,7 hPa 0,0 l/m 0 min 0 min 68 W/m 22,5 km/h
O-SO (4 Bft)
100,00 %
Durchschnitt _ 5,5 C 5,1 C 3,0 C 94 % 1026,7 hPa #0,0 l/m #0 min. #0 min. 25 W/m 7,9 km/h (2 Bft) 97,31 %
© 2022 W. Hausmann